Time,TemperatureF,DewpointF,PressureIn,WindDirection,WindDirectionDegrees,WindSpeedMPH,WindSpeedGustMPH,Humidity,HourlyPrecipIn,Conditions,Clouds,dailyrainin,SoftwareType,DateUTC
2013-07-19 00:02:00,83.0,79.0,30.00,SE,135,10.0,11.0,87,0.00,,,0.00,TxWx,2013-07-19 05:02:00,
2013-07-19 00:03:00,83.0,79.0,30.00,SE,135,10.0,10.0,87,0.00,,,0.00,TxWx,2013-07-19 05:03:00,
2013-07-19 00:04:00,83.0,78.0,30.00,ESE,112,5.0,5.0,86,0.00,,,0.00,TxWx,2013-07-19 05:04:00,
2013-07-19 00:07:00,83.0,78.0,30.00,SE,135,6.0,6.0,86,0.00,,,0.00,TxWx,2013-07-19 05:07:00,
2013-07-19 00:08:00,83.0,78.0,30.00,SE,135,6.0,7.0,86,0.00,,,0.00,TxWx,2013-07-19 05:08:00,
2013-07-19 00:09:00,83.0,79.0,30.00,SE,135,10.0,10.0,87,0.00,,,0.00,TxWx,2013-07-19 05:09:00,
2013-07-19 00:13:00,83.0,79.0,30.00,SSE,157,4.0,4.0,87,0.00,,,0.00,TxWx,2013-07-19 05:13:00,
2013-07-19 00:14:00,83.0,79.0,30.00,ESE,112,6.0,6.0,87,0.00,,,0.00,TxWx,2013-07-19 05:14:00,
2013-07-19 00:19:00,82.0,78.0,30.01,SE,135,5.0,6.0,87,0.00,,,0.00,TxWx,2013-07-19 05:19:00,
2013-07-19 00:20:00,82.0,78.0,30.01,SSE,157,3.0,3.0,87,0.00,,,0.00,TxWx,2013-07-19 05:20:00,
2013-07-19 00:23:00,82.0,78.0,30.01,SSE,157,8.0,8.0,87,0.00,,,0.00,TxWx,2013-07-19 05:23:00,
2013-07-19 00:25:00,82.0,78.0,30.01,SSE,157,5.0,5.0,87,0.00,,,0.00,TxWx,2013-07-19 05:25:00,
2013-07-19 00:26:00,82.0,78.0,30.01,SE,135,5.0,6.0,87,0.00,,,0.00,TxWx,2013-07-19 05:26:00,
2013-07-19 00:28:00,82.0,78.0,30.01,SE,135,5.0,5.0,87,0.00,,,0.00,TxWx,2013-07-19 05:28:00,
2013-07-19 00:30:00,82.0,78.0,30.01,SSE,157,6.0,6.0,87,0.00,,,0.00,TxWx,2013-07-19 05:30:00,
2013-07-19 00:31:00,82.0,78.0,30.01,SSE,157,5.0,5.0,87,0.00,,,0.00,TxWx,2013-07-19 05:31:00,
2013-07-19 00:33:00,82.0,78.0,30.01,SSE,157,6.0,6.0,87,0.00,,,0.00,TxWx,2013-07-19 05:33:00,
2013-07-19 00:36:00,82.0,78.0,30.01,SE,135,8.0,8.0,87,0.00,,,0.00,TxWx,2013-07-19 05:36:00,
2013-07-19 00:38:00,82.0,78.0,30.01,SSE,157,8.0,8.0,87,0.00,,,0.00,TxWx,2013-07-19 05:38:00,
2013-07-19 00:39:00,82.0,78.0,30.01,SSE,157,5.0,5.0,87,0.00,,,0.00,TxWx,2013-07-19 05:39:00,
2013-07-19 00:43:00,82.0,78.0,30.00,SE,135,4.0,5.0,87,0.00,,,0.00,TxWx,2013-07-19 05:43:00,
2013-07-19 00:44:00,82.0,78.0,30.00,South,180,5.0,5.0,87,0.00,,,0.00,TxWx,2013-07-19 05:44:00,
2013-07-19 00:45:00,82.0,78.0,30.00,SSE,157,7.0,7.0,87,0.00,,,0.00,TxWx,2013-07-19 05:45:00,
2013-07-19 00:47:00,82.0,78.0,30.00,SE,135,5.0,5.0,87,0.00,,,0.00,TxWx,2013-07-19 05:47:00,
2013-07-19 00:49:00,82.0,78.0,30.00,SE,135,5.0,5.0,87,0.00,,,0.00,TxWx,2013-07-19 05:49:00,
2013-07-19 00:50:00,82.0,78.0,30.00,SSE,157,5.0,5.0,87,0.00,,,0.00,TxWx,2013-07-19 05:50:00,
2013-07-19 00:53:00,82.0,78.0,30.00,SSE,157,6.0,7.0,87,0.00,,,0.00,TxWx,2013-07-19 05:53:00,
2013-07-19 00:56:00,82.0,78.0,30.00,SE,135,4.0,4.0,88,0.00,,,0.00,TxWx,2013-07-19 05:56:00,
2013-07-19 00:58:00,82.0,78.0,30.00,SSE,157,5.0,5.0,88,0.00,,,0.00,TxWx,2013-07-19 05:58:00,
2013-07-19 00:59:00,82.0,78.0,30.00,South,180,3.0,3.0,88,0.00,,,0.00,TxWx,2013-07-19 05:59:00,
2013-07-19 01:01:00,82.0,78.0,30.00,SE,135,3.0,3.0,88,0.00,,,0.00,TxWx,2013-07-19 06:01:00,
2013-07-19 01:03:00,82.0,78.0,29.99,SSE,157,3.0,3.0,88,0.00,,,0.00,TxWx,2013-07-19 06:03:00,
2013-07-19 01:04:00,82.0,78.0,29.99,SE,135,5.0,5.0,88,0.00,,,0.00,TxWx,2013-07-19 06:04:00,
2013-07-19 01:05:00,82.0,78.0,29.99,SE,135,3.0,3.0,88,0.00,,,0.00,TxWx,2013-07-19 06:05:00,
2013-07-19 01:06:00,82.0,78.0,29.99,ESE,112,5.0,6.0,88,0.00,,,0.00,TxWx,2013-07-19 06:06:00,
2013-07-19 01:07:00,82.0,78.0,29.99,SE,135,6.0,6.0,88,0.00,,,0.00,TxWx,2013-07-19 06:07:00,
2013-07-19 01:09:00,82.0,78.0,29.99,SSE,157,6.0,7.0,88,0.00,,,0.00,TxWx,2013-07-19 06:09:00,
2013-07-19 01:11:00,82.0,78.0,29.99,SSE,157,4.0,4.0,88,0.00,,,0.00,TxWx,2013-07-19 06:11:00,
2013-07-19 01:12:00,82.0,78.0,29.99,ESE,112,8.0,8.0,88,0.00,,,0.00,TxWx,2013-07-19 06:12:00,
2013-07-19 01:13:00,82.0,78.0,29.99,SE,135,8.0,8.0,88,0.00,,,0.00,TxWx,2013-07-19 06:13:00,
2013-07-19 01:16:00,82.0,78.0,29.99,SSE,157,4.0,4.0,88,0.00,,,0.00,TxWx,2013-07-19 06:16:00,
2013-07-19 01:17:00,82.0,78.0,29.99,SE,135,3.0,5.0,88,0.00,,,0.00,TxWx,2013-07-19 06:17:00,
2013-07-19 01:18:00,82.0,78.0,29.99,SE,135,5.0,5.0,88,0.00,,,0.00,TxWx,2013-07-19 06:18:00,
2013-07-19 01:19:00,82.0,78.0,29.99,South,180,6.0,6.0,88,0.00,,,0.00,TxWx,2013-07-19 06:19:00,
2013-07-19 01:22:00,82.0,78.0,29.99,SE,135,3.0,3.0,88,0.00,,,0.00,TxWx,2013-07-19 06:22:00,
2013-07-19 01:23:00,82.0,78.0,29.99,SSW,202,6.0,6.0,88,0.00,,,0.00,TxWx,2013-07-19 06:23:00,
2013-07-19 01:25:00,82.0,78.0,29.99,South,180,4.0,4.0,88,0.00,,,0.00,TxWx,2013-07-19 06:25:00,
2013-07-19 01:29:00,81.0,77.0,29.99,SSW,202,6.0,7.0,88,0.00,,,0.00,TxWx,2013-07-19 06:29:00,
2013-07-19 01:30:00,81.0,77.0,29.99,SSW,202,4.0,5.0,88,0.00,,,0.00,TxWx,2013-07-19 06:30:00,
2013-07-19 01:31:00,81.0,77.0,29.99,SSE,157,6.0,6.0,88,0.00,,,0.00,TxWx,2013-07-19 06:31:00,
2013-07-19 01:32:00,81.0,77.0,29.99,SSW,202,4.0,4.0,88,0.00,,,0.00,TxWx,2013-07-19 06:32:00,
2013-07-19 01:34:00,81.0,77.0,29.99,South,180,5.0,5.0,88,0.00,,,0.00,TxWx,2013-07-19 06:34:00,
2013-07-19 01:35:00,81.0,77.0,29.99,SSW,202,5.0,5.0,89,0.00,,,0.00,TxWx,2013-07-19 06:35:00,
2013-07-19 01:36:00,81.0,77.0,29.99,South,180,3.0,3.0,89,0.00,,,0.00,TxWx,2013-07-19 06:36:00,
2013-07-19 01:37:00,81.0,77.0,29.99,South,180,8.0,8.0,89,0.00,,,0.00,TxWx,2013-07-19 06:37:00,
2013-07-19 01:38:00,81.0,77.0,29.99,SSW,202,4.0,5.0,89,0.00,,,0.00,TxWx,2013-07-19 06:38:00,
2013-07-19 01:40:00,80.0,76.0,29.99,SSW,202,4.0,5.0,89,0.00,,,0.00,TxWx,2013-07-19 06:40:00,
2013-07-19 01:41:00,80.0,77.0,29.99,SW,225,5.0,5.0,90,0.00,,,0.00,TxWx,2013-07-19 06:41:00,
2013-07-19 01:43:00,80.0,77.0,29.99,SW,225,3.0,3.0,90,0.00,,,0.00,TxWx,2013-07-19 06:43:00,
2013-07-19 01:45:00,80.0,77.0,29.99,South,180,3.0,4.0,90,0.00,,,0.00,TxWx,2013-07-19 06:45:00,
2013-07-19 01:48:00,80.0,77.0,29.99,South,180,3.0,3.0,91,0.00,,,0.00,TxWx,2013-07-19 06:48:00,
2013-07-19 01:49:00,80.0,77.0,29.99,South,180,3.0,3.0,91,0.00,,,0.00,TxWx,2013-07-19 06:49:00,
2013-07-19 01:50:00,80.0,77.0,29.99,SSW,202,4.0,4.0,91,0.00,,,0.00,TxWx,2013-07-19 06:50:00,
2013-07-19 01:51:00,80.0,77.0,29.99,SSW,202,3.0,3.0,91,0.00,,,0.00,TxWx,2013-07-19 06:51:00,
2013-07-19 01:54:00,80.0,77.0,29.98,SSW,202,3.0,3.0,91,0.00,,,0.00,TxWx,2013-07-19 06:54:00,
2013-07-19 01:55:00,80.0,77.0,29.98,SSE,157,3.0,3.0,91,0.00,,,0.00,TxWx,2013-07-19 06:55:00,
2013-07-19 01:56:00,80.0,77.0,29.98,SSE,157,2.0,2.0,91,0.00,,,0.00,TxWx,2013-07-19 06:56:00,
2013-07-19 01:59:00,80.0,77.0,29.98,SSE,157,3.0,3.0,92,0.00,,,0.00,TxWx,2013-07-19 06:59:00,
2013-07-19 02:02:00,80.0,77.0,29.98,SSE,157,2.0,3.0,92,0.00,,,0.00,TxWx,2013-07-19 07:02:00,
2013-07-19 02:03:00,80.0,77.0,29.98,SSE,157,3.0,3.0,92,0.00,,,0.00,TxWx,2013-07-19 07:03:00,
2013-07-19 02:05:00,80.0,77.0,29.98,South,180,1.0,2.0,92,0.00,,,0.00,TxWx,2013-07-19 07:05:00,
2013-07-19 02:07:00,80.0,77.0,29.98,South,180,3.0,3.0,92,0.00,,,0.00,TxWx,2013-07-19 07:07:00,
2013-07-19 02:09:00,80.0,77.0,29.98,SSE,157,2.0,3.0,92,0.00,,,0.00,TxWx,2013-07-19 07:09:00,
2013-07-19 02:10:00,80.0,77.0,29.98,South,180,3.0,3.0,92,0.00,,,0.00,TxWx,2013-07-19 07:10:00,
2013-07-19 02:13:00,80.0,77.0,29.98,South,180,3.0,3.0,92,0.00,,,0.00,TxWx,2013-07-19 07:13:00,
2013-07-19 02:15:00,80.0,77.0,29.98,South,180,4.0,4.0,92,0.00,,,0.00,TxWx,2013-07-19 07:15:00,
2013-07-19 02:16:00,80.0,77.0,29.98,SSE,157,4.0,5.0,92,0.00,,,0.00,TxWx,2013-07-19 07:16:00,
2013-07-19 02:19:00,80.0,77.0,29.98,SSE,157,3.0,3.0,92,0.00,,,0.00,TxWx,2013-07-19 07:19:00,
2013-07-19 02:20:00,80.0,77.0,29.98,SSE,157,3.0,3.0,92,0.00,,,0.00,TxWx,2013-07-19 07:20:00,
2013-07-19 02:21:00,80.0,77.0,29.98,SSE,157,3.0,3.0,92,0.00,,,0.00,TxWx,2013-07-19 07:21:00,
2013-07-19 02:22:00,80.0,77.0,29.98,SSE,157,3.0,4.0,92,0.00,,,0.00,TxWx,2013-07-19 07:22:00,
2013-07-19 02:25:00,80.0,77.0,29.98,South,180,2.0,3.0,92,0.00,,,0.00,TxWx,2013-07-19 07:25:00,
2013-07-19 02:27:00,80.0,77.0,29.98,SSE,157,3.0,3.0,92,0.00,,,0.00,TxWx,2013-07-19 07:27:00,
2013-07-19 02:28:00,80.0,77.0,29.98,SSE,157,2.0,2.0,92,0.00,,,0.00,TxWx,2013-07-19 07:28:00,
2013-07-19 02:31:00,80.0,77.0,29.98,SSW,202,2.0,2.0,92,0.00,,,0.00,TxWx,2013-07-19 07:31:00,
2013-07-19 02:32:00,80.0,77.0,29.98,SSW,202,1.0,2.0,92,0.00,,,0.00,TxWx,2013-07-19 07:32:00,
2013-07-19 02:33:00,80.0,77.0,29.98,SSW,202,1.0,1.0,92,0.00,,,0.00,TxWx,2013-07-19 07:33:00,
2013-07-19 02:34:00,80.0,77.0,29.98,SW,225,1.0,1.0,92,0.00,,,0.00,TxWx,2013-07-19 07:34:00,
2013-07-19 02:36:00,80.0,77.0,29.98,SSW,202,1.0,1.0,92,0.00,,,0.00,TxWx,2013-07-19 07:36:00,
2013-07-19 02:38:00,80.0,77.0,29.97,SE,135,2.0,3.0,92,0.00,,,0.00,TxWx,2013-07-19 07:38:00,
2013-07-19 02:39:00,80.0,77.0,29.98,South,180,2.0,2.0,92,0.00,,,0.00,TxWx,2013-07-19 07:39:00,
2013-07-19 02:43:00,80.0,77.0,29.97,South,180,3.0,3.0,92,0.00,,,0.00,TxWx,2013-07-19 07:43:00,
2013-07-19 02:44:00,80.0,77.0,29.97,SSE,157,2.0,3.0,92,0.00,,,0.00,TxWx,2013-07-19 07:44:00,
2013-07-19 02:45:00,80.0,77.0,29.97,SSE,157,5.0,5.0,92,0.00,,,0.00,TxWx,2013-07-19 07:45:00,
2013-07-19 02:46:00,80.0,77.0,29.97,SE,135,4.0,5.0,92,0.00,,,0.00,TxWx,2013-07-19 07:46:00,
2013-07-19 02:49:00,80.0,77.0,29.97,SE,135,3.0,3.0,92,0.00,,,0.00,TxWx,2013-07-19 07:49:00,
2013-07-19 02:50:00,80.0,77.0,29.97,SSE,157,3.0,3.0,92,0.00,,,0.00,TxWx,2013-07-19 07:50:00,
2013-07-19 02:51:00,80.0,77.0,29.97,SSE,157,3.0,3.0,92,0.00,,,0.00,TxWx,2013-07-19 07:51:00,
2013-07-19 02:52:00,80.0,77.0,29.97,SE,135,2.0,3.0,92,0.00,,,0.00,TxWx,2013-07-19 07:52:00,
2013-07-19 02:56:00,80.0,77.0,29.97,SSE,157,3.0,3.0,92,0.00,,,0.00,TxWx,2013-07-19 07:56:00,
2013-07-19 02:57:00,80.0,78.0,29.97,SSE,157,3.0,3.0,92,0.00,,,0.00,TxWx,2013-07-19 07:57:00,
2013-07-19 02:58:00,80.0,77.0,29.97,SSE,157,3.0,3.0,92,0.00,,,0.00,TxWx,2013-07-19 07:58:00,
2013-07-19 02:59:00,81.0,78.0,29.97,SSE,157,2.0,3.0,92,0.00,,,0.00,TxWx,2013-07-19 07:59:00,
2013-07-19 03:02:00,80.0,77.0,29.97,South,180,3.0,3.0,92,0.00,,,0.00,TxWx,2013-07-19 08:02:00,
2013-07-19 03:05:00,80.0,77.0,29.97,SSW,202,3.0,3.0,92,0.00,,,0.00,TxWx,2013-07-19 08:05:00,
2013-07-19 03:07:00,80.0,77.0,29.97,South,180,3.0,3.0,92,0.00,,,0.00,TxWx,2013-07-19 08:07:00,
2013-07-19 03:09:00,80.0,77.0,29.97,SSW,202,1.0,2.0,92,0.00,,,0.00,TxWx,2013-07-19 08:09:00,
2013-07-19 03:10:00,80.0,77.0,29.97,SSW,202,1.0,1.0,92,0.00,,,0.00,TxWx,2013-07-19 08:10:00,
2013-07-19 03:11:00,80.0,77.0,29.97,SSW,202,1.0,1.0,91,0.00,,,0.00,TxWx,2013-07-19 08:11:00,
2013-07-19 03:14:00,80.0,77.0,29.97,SSW,202,1.0,1.0,92,0.00,,,0.00,TxWx,2013-07-19 08:14:00,
2013-07-19 03:15:00,80.0,77.0,29.97,SSW,202,1.0,1.0,92,0.00,,,0.00,TxWx,2013-07-19 08:15:00,
2013-07-19 03:17:00,80.0,77.0,29.97,South,180,1.0,1.0,92,0.00,,,0.00,TxWx,2013-07-19 08:17:00,
2013-07-19 03:18:00,80.0,77.0,29.97,South,180,1.0,1.0,92,0.00,,,0.00,TxWx,2013-07-19 08:18:00,
2013-07-19 03:20:00,80.0,77.0,29.96,SSE,157,2.0,2.0,92,0.00,,,0.00,TxWx,2013-07-19 08:20:00,
2013-07-19 03:21:00,80.0,77.0,29.97,South,180,2.0,2.0,92,0.00,,,0.00,TxWx,2013-07-19 08:21:00,
2013-07-19 03:23:00,80.0,77.0,29.97,South,180,2.0,2.0,92,0.00,,,0.00,TxWx,2013-07-19 08:23:00,
2013-07-19 03:24:00,80.0,77.0,29.97,South,180,1.0,2.0,92,0.00,,,0.00,TxWx,2013-07-19 08:24:00,
2013-07-19 03:28:00,80.0,77.0,29.96,South,180,1.0,1.0,92,0.00,,,0.00,TxWx,2013-07-19 08:28:00,
2013-07-19 03:29:00,80.0,77.0,29.96,South,180,2.0,2.0,92,0.00,,,0.00,TxWx,2013-07-19 08:29:00,
2013-07-19 03:31:00,80.0,77.0,29.96,South,180,3.0,3.0,92,0.00,,,0.00,TxWx,2013-07-19 08:31:00,
2013-07-19 03:32:00,80.0,77.0,29.96,SSE,157,3.0,3.0,92,0.00,,,0.00,TxWx,2013-07-19 08:32:00,
2013-07-19 03:33:00,80.0,77.0,29.96,South,180,3.0,3.0,92,0.00,,,0.00,TxWx,2013-07-19 08:33:00,
2013-07-19 03:37:00,80.0,77.0,29.96,South,180,3.0,3.0,92,0.00,,,0.00,TxWx,2013-07-19 08:37:00,
2013-07-19 03:38:00,80.0,77.0,29.96,SSW,202,2.0,2.0,92,0.00,,,0.00,TxWx,2013-07-19 08:38:00,
2013-07-19 03:39:00,80.0,77.0,29.96,South,180,2.0,2.0,92,0.00,,,0.00,TxWx,2013-07-19 08:39:00,
2013-07-19 03:41:00,80.0,77.0,29.96,South,180,1.0,2.0,92,0.00,,,0.00,TxWx,2013-07-19 08:41:00,
2013-07-19 03:43:00,80.0,77.0,29.96,South,180,3.0,3.0,92,0.00,,,0.00,TxWx,2013-07-19 08:43:00,
2013-07-19 03:44:00,80.0,77.0,29.96,South,180,2.0,3.0,92,0.00,,,0.00,TxWx,2013-07-19 08:44:00,
2013-07-19 03:46:00,80.0,77.0,29.96,South,180,3.0,3.0,92,0.00,,,0.00,TxWx,2013-07-19 08:46:00,
2013-07-19 03:49:00,80.0,77.0,29.96,South,180,2.0,3.0,92,0.00,,,0.00,TxWx,2013-07-19 08:49:00,
2013-07-19 03:50:00,80.0,77.0,29.96,South,180,2.0,3.0,92,0.00,,,0.00,TxWx,2013-07-19 08:50:00,
2013-07-19 03:51:00,80.0,77.0,29.96,South,180,3.0,3.0,92,0.00,,,0.00,TxWx,2013-07-19 08:51:00,
2013-07-19 03:52:00,80.0,77.0,29.96,South,180,2.0,2.0,92,0.00,,,0.00,TxWx,2013-07-19 08:52:00,
2013-07-19 03:55:00,80.0,77.0,29.96,South,180,2.0,2.0,92,0.00,,,0.00,TxWx,2013-07-19 08:55:00,
2013-07-19 03:57:00,80.0,77.0,29.96,SSE,157,2.0,3.0,92,0.00,,,0.00,TxWx,2013-07-19 08:57:00,
2013-07-19 03:58:00,80.0,77.0,29.96,SSE,157,3.0,3.0,92,0.00,,,0.00,TxWx,2013-07-19 08:58:00,
2013-07-19 04:01:00,80.0,77.0,29.96,South,180,2.0,2.0,92,0.00,,,0.00,TxWx,2013-07-19 09:01:00,
2013-07-19 04:02:00,80.0,77.0,29.96,South,180,3.0,3.0,92,0.00,,,0.00,TxWx,2013-07-19 09:02:00,
2013-07-19 04:03:00,80.0,77.0,29.96,South,180,3.0,3.0,92,0.00,,,0.00,TxWx,2013-07-19 09:03:00,
2013-07-19 04:04:00,80.0,77.0,29.96,SSW,202,3.0,3.0,92,0.00,,,0.00,TxWx,2013-07-19 09:04:00,
2013-07-19 04:05:00,80.0,77.0,29.96,SSE,157,3.0,3.0,92,0.00,,,0.00,TxWx,2013-07-19 09:05:00,
2013-07-19 04:07:00,80.0,77.0,29.96,South,180,2.0,2.0,92,0.00,,,0.00,TxWx,2013-07-19 09:07:00,
2013-07-19 04:09:00,80.0,77.0,29.96,South,180,2.0,3.0,92,0.00,,,0.00,TxWx,2013-07-19 09:09:00,
2013-07-19 04:10:00,80.0,77.0,29.96,South,180,2.0,2.0,92,0.00,,,0.00,TxWx,2013-07-19 09:10:00,
2013-07-19 04:11:00,80.0,77.0,29.96,South,180,1.0,2.0,92,0.00,,,0.00,TxWx,2013-07-19 09:11:00,
2013-07-19 04:13:00,80.0,77.0,29.96,SSE,157,2.0,2.0,92,0.00,,,0.00,TxWx,2013-07-19 09:13:00,
2013-07-19 04:14:00,80.0,78.0,29.96,SSE,157,3.0,3.0,93,0.00,,,0.00,TxWx,2013-07-19 09:14:00,
2013-07-19 04:15:00,80.0,78.0,29.96,SSE,157,3.0,3.0,93,0.00,,,0.00,TxWx,2013-07-19 09:15:00,
2013-07-19 04:16:00,80.0,78.0,29.96,SSE,157,3.0,3.0,93,0.00,,,0.00,TxWx,2013-07-19 09:16:00,
2013-07-19 04:18:00,80.0,78.0,29.96,SSE,157,3.0,3.0,93,0.00,,,0.00,TxWx,2013-07-19 09:18:00,
2013-07-19 04:20:00,80.0,78.0,29.96,SSE,157,3.0,3.0,93,0.00,,,0.00,TxWx,2013-07-19 09:20:00,
2013-07-19 04:22:00,80.0,78.0,29.96,SSE,157,3.0,3.0,93,0.00,,,0.00,TxWx,2013-07-19 09:22:00,
2013-07-19 04:24:00,80.0,78.0,29.96,SSE,157,3.0,3.0,93,0.00,,,0.00,TxWx,2013-07-19 09:24:00,
2013-07-19 04:25:00,80.0,78.0,29.96,South,180,3.0,3.0,93,0.00,,,0.00,TxWx,2013-07-19 09:25:00,
2013-07-19 04:28:00,80.0,78.0,29.96,South,180,3.0,3.0,93,0.00,,,0.00,TxWx,2013-07-19 09:28:00,
2013-07-19 04:31:00,80.0,78.0,29.95,South,180,3.0,3.0,93,0.00,,,0.00,TxWx,2013-07-19 09:31:00,
2013-07-19 04:32:00,80.0,77.0,29.95,South,180,2.0,2.0,92,0.00,,,0.00,TxWx,2013-07-19 09:32:00,
2013-07-19 04:36:00,80.0,77.0,29.95,South,180,1.0,2.0,92,0.00,,,0.00,TxWx,2013-07-19 09:36:00,
2013-07-19 04:38:00,80.0,77.0,29.95,South,180,2.0,2.0,92,0.00,,,0.00,TxWx,2013-07-19 09:38:00,
2013-07-19 04:39:00,80.0,77.0,29.95,SSE,157,2.0,2.0,92,0.00,,,0.00,TxWx,2013-07-19 09:39:00,
2013-07-19 04:40:00,80.0,77.0,29.95,South,180,2.0,3.0,92,0.00,,,0.00,TxWx,2013-07-19 09:40:00,
2013-07-19 04:42:00,80.0,77.0,29.95,SSE,157,1.0,2.0,92,0.00,,,0.00,TxWx,2013-07-19 09:42:00,
2013-07-19 04:44:00,80.0,77.0,29.95,South,180,1.0,2.0,92,0.00,,,0.00,TxWx,2013-07-19 09:44:00,
2013-07-19 04:46:00,80.0,77.0,29.95,SSW,202,1.0,1.0,92,0.00,,,0.00,TxWx,2013-07-19 09:46:00,
2013-07-19 04:48:00,80.0,77.0,29.95,South,180,1.0,1.0,92,0.00,,,0.00,TxWx,2013-07-19 09:48:00,
2013-07-19 04:49:00,80.0,77.0,29.95,South,180,2.0,2.0,92,0.00,,,0.00,TxWx,2013-07-19 09:49:00,
2013-07-19 04:50:00,80.0,77.0,29.95,SSW,202,2.0,2.0,92,0.00,,,0.00,TxWx,2013-07-19 09:50:00,
2013-07-19 04:51:00,80.0,77.0,29.95,South,180,2.0,2.0,92,0.00,,,0.00,TxWx,2013-07-19 09:51:00,
2013-07-19 04:52:00,80.0,77.0,29.95,South,180,2.0,3.0,92,0.00,,,0.00,TxWx,2013-07-19 09:52:00,
2013-07-19 04:55:00,80.0,78.0,29.96,SSE,157,3.0,3.0,93,0.00,,,0.00,TxWx,2013-07-19 09:55:00,
2013-07-19 04:59:00,80.0,78.0,29.96,SSE,157,2.0,3.0,93,0.00,,,0.00,TxWx,2013-07-19 09:59:00,
2013-07-19 05:01:00,80.0,78.0,29.96,SSE,157,3.0,3.0,93,0.00,,,0.00,TxWx,2013-07-19 10:01:00,
2013-07-19 05:02:00,80.0,78.0,29.96,SSE,157,3.0,3.0,93,0.00,,,0.00,TxWx,2013-07-19 10:02:00,
2013-07-19 05:05:00,80.0,78.0,29.96,SSE,157,3.0,3.0,93,0.00,,,0.00,TxWx,2013-07-19 10:05:00,
2013-07-19 05:06:00,80.0,78.0,29.96,South,180,2.0,3.0,93,0.00,,,0.00,TxWx,2013-07-19 10:06:00,
2013-07-19 05:07:00,80.0,78.0,29.96,SSE,157,3.0,3.0,93,0.00,,,0.00,TxWx,2013-07-19 10:07:00,
2013-07-19 05:08:00,80.0,78.0,29.96,SSE,157,3.0,3.0,93,0.00,,,0.00,TxWx,2013-07-19 10:08:00,
2013-07-19 05:12:00,80.0,78.0,29.96,South,180,2.0,2.0,93,0.00,,,0.00,TxWx,2013-07-19 10:12:00,
2013-07-19 05:13:00,80.0,78.0,29.96,South,180,2.0,2.0,93,0.00,,,0.00,TxWx,2013-07-19 10:13:00,
2013-07-19 05:14:00,80.0,78.0,29.96,South,180,1.0,2.0,93,0.00,,,0.00,TxWx,2013-07-19 10:14:00,
2013-07-19 05:16:00,80.0,78.0,29.96,South,180,2.0,2.0,93,0.00,,,0.00,TxWx,2013-07-19 10:16:00,
2013-07-19 05:18:00,80.0,78.0,29.96,South,180,2.0,2.0,93,0.00,,,0.00,TxWx,2013-07-19 10:18:00,
2013-07-19 05:19:00,80.0,78.0,29.96,South,180,2.0,2.0,93,0.00,,,0.00,TxWx,2013-07-19 10:19:00,
2013-07-19 05:20:00,80.0,78.0,29.96,South,180,2.0,2.0,93,0.00,,,0.00,TxWx,2013-07-19 10:20:00,
2013-07-19 05:22:00,80.0,78.0,29.96,South,180,2.0,2.0,93,0.00,,,0.00,TxWx,2013-07-19 10:22:00,
2013-07-19 05:23:00,80.0,78.0,29.96,South,180,3.0,3.0,93,0.00,,,0.00,TxWx,2013-07-19 10:23:00,
2013-07-19 05:24:00,80.0,78.0,29.96,South,180,3.0,3.0,93,0.00,,,0.00,TxWx,2013-07-19 10:24:00,
2013-07-19 05:26:00,80.0,78.0,29.96,SSE,157,3.0,3.0,93,0.00,,,0.00,TxWx,2013-07-19 10:26:00,
2013-07-19 05:29:00,80.0,78.0,29.96,South,180,2.0,3.0,93,0.00,,,0.00,TxWx,2013-07-19 10:29:00,
2013-07-19 05:30:00,80.0,78.0,29.96,SSW,202,2.0,2.0,93,0.00,,,0.00,TxWx,2013-07-19 10:30:00,
2013-07-19 05:31:00,80.0,78.0,29.96,SSW,202,2.0,2.0,93,0.00,,,0.00,TxWx,2013-07-19 10:31:00,
2013-07-19 05:32:00,80.0,78.0,29.96,SSW,202,2.0,2.0,93,0.00,,,0.00,TxWx,2013-07-19 10:32:00,
2013-07-19 05:37:00,80.0,78.0,29.96,SW,225,1.0,2.0,93,0.00,,,0.00,TxWx,2013-07-19 10:37:00,
2013-07-19 05:38:00,80.0,78.0,29.96,SW,225,2.0,2.0,93,0.00,,,0.00,TxWx,2013-07-19 10:38:00,
2013-07-19 05:39:00,80.0,78.0,29.96,WSW,247,1.0,1.0,93,0.00,,,0.00,TxWx,2013-07-19 10:39:00,
2013-07-19 05:40:00,80.0,78.0,29.96,SW,225,1.0,1.0,93,0.00,,,0.00,TxWx,2013-07-19 10:40:00,
2013-07-19 05:42:00,80.0,78.0,29.96,WSW,247,2.0,2.0,93,0.00,,,0.00,TxWx,2013-07-19 10:42:00,
2013-07-19 05:44:00,80.0,78.0,29.96,WSW,247,2.0,2.0,93,0.00,,,0.00,TxWx,2013-07-19 10:44:00,
2013-07-19 05:45:00,80.0,78.0,29.96,SW,225,1.0,2.0,93,0.00,,,0.00,TxWx,2013-07-19 10:45:00,
2013-07-19 05:46:00,80.0,78.0,29.96,SW,225,2.0,2.0,93,0.00,,,0.00,TxWx,2013-07-19 10:46:00,
2013-07-19 05:47:00,80.0,78.0,29.96,SW,225,1.0,2.0,93,0.00,,,0.00,TxWx,2013-07-19 10:47:00,
2013-07-19 05:48:00,80.0,78.0,29.96,SW,225,2.0,2.0,93,0.00,,,0.00,TxWx,2013-07-19 10:48:00,
2013-07-19 05:51:00,80.0,78.0,29.96,SSW,202,1.0,2.0,93,0.00,,,0.00,TxWx,2013-07-19 10:51:00,
2013-07-19 05:52:00,80.0,78.0,29.96,SSW,202,2.0,2.0,93,0.00,,,0.00,TxWx,2013-07-19 10:52:00,
2013-07-19 05:53:00,80.0,78.0,29.96,SSW,202,2.0,2.0,93,0.00,,,0.00,TxWx,2013-07-19 10:53:00,
2013-07-19 05:54:00,80.0,78.0,29.96,SSW,202,2.0,3.0,93,0.00,,,0.00,TxWx,2013-07-19 10:54:00,
2013-07-19 05:58:00,80.0,78.0,29.96,SSW,202,2.0,2.0,93,0.00,,,0.00,TxWx,2013-07-19 10:58:00,
2013-07-19 05:59:00,80.0,78.0,29.96,SSW,202,2.0,2.0,93,0.00,,,0.00,TxWx,2013-07-19 10:59:00,
2013-07-19 06:01:00,80.0,78.0,29.96,SSW,202,2.0,2.0,93,0.00,,,0.00,TxWx,2013-07-19 11:01:00,
2013-07-19 06:04:00,80.0,78.0,29.96,SW,225,2.0,2.0,93,0.00,,,0.00,TxWx,2013-07-19 11:04:00,
2013-07-19 06:05:00,80.0,78.0,29.96,SW,225,3.0,3.0,93,0.00,,,0.00,TxWx,2013-07-19 11:05:00,
2013-07-19 06:06:00,80.0,78.0,29.96,SW,225,2.0,2.0,93,0.00,,,0.00,TxWx,2013-07-19 11:06:00,
2013-07-19 06:08:00,80.0,78.0,29.96,SW,225,2.0,2.0,93,0.00,,,0.00,TxWx,2013-07-19 11:08:00,
2013-07-19 06:09:00,80.0,78.0,29.96,SW,225,1.0,2.0,93,0.00,,,0.00,TxWx,2013-07-19 11:09:00,
2013-07-19 06:10:00,80.0,78.0,29.96,SW,225,1.0,1.0,93,0.00,,,0.00,TxWx,2013-07-19 11:10:00,
2013-07-19 06:13:00,80.0,78.0,29.96,SW,225,2.0,2.0,93,0.00,,,0.00,TxWx,2013-07-19 11:13:00,
2013-07-19 06:14:00,80.0,78.0,29.96,SW,225,2.0,2.0,93,0.00,,,0.00,TxWx,2013-07-19 11:14:00,
2013-07-19 06:16:00,80.0,78.0,29.96,WSW,247,3.0,3.0,93,0.00,,,0.00,TxWx,2013-07-19 11:16:00,
2013-07-19 06:18:00,80.0,78.0,29.96,WSW,247,2.0,2.0,93,0.00,,,0.00,TxWx,2013-07-19 11:18:00,
2013-07-19 06:19:00,80.0,78.0,29.96,WSW,247,2.0,2.0,93,0.00,,,0.00,TxWx,2013-07-19 11:19:00,
2013-07-19 06:21:00,80.0,78.0,29.96,WSW,247,1.0,2.0,93,0.00,,,0.00,TxWx,2013-07-19 11:21:00,
2013-07-19 06:22:00,80.0,78.0,29.97,WSW,247,1.0,2.0,93,0.00,,,0.00,TxWx,2013-07-19 11:22:00,
2013-07-19 06:23:00,80.0,78.0,29.96,WSW,247,1.0,1.0,93,0.00,,,0.00,TxWx,2013-07-19 11:23:00,
2013-07-19 06:24:00,80.0,78.0,29.97,WSW,247,1.0,1.0,93,0.00,,,0.00,TxWx,2013-07-19 11:24:00,
2013-07-19 06:27:00,80.0,78.0,29.96,West,270,0.0,1.0,93,0.00,,,0.00,TxWx,2013-07-19 11:27:00,
2013-07-19 06:29:00,80.0,78.0,29.96,West,270,1.0,1.0,93,0.00,,,0.00,TxWx,2013-07-19 11:29:00,
2013-07-19 06:30:00,80.0,78.0,29.97,West,270,1.0,1.0,93,0.00,,,0.00,TxWx,2013-07-19 11:30:00,
2013-07-19 06:31:00,80.0,78.0,29.97,West,270,1.0,1.0,93,0.00,,,0.00,TxWx,2013-07-19 11:31:00,
2013-07-19 06:33:00,80.0,78.0,29.97,West,270,1.0,1.0,93,0.00,,,0.00,TxWx,2013-07-19 11:33:00,
2013-07-19 06:35:00,80.0,78.0,29.97,WNW,292,1.0,1.0,93,0.00,,,0.00,TxWx,2013-07-19 11:35:00,
2013-07-19 06:37:00,80.0,78.0,29.97,WNW,292,0.0,1.0,93,0.00,,,0.00,TxWx,2013-07-19 11:37:00,
2013-07-19 06:38:00,80.0,78.0,29.97,WNW,292,0.0,0.0,93,0.00,,,0.00,TxWx,2013-07-19 11:38:00,
2013-07-19 06:41:00,80.0,78.0,29.97,NW,315,0.0,0.0,93,0.00,,,0.00,TxWx,2013-07-19 11:41:00,
2013-07-19 06:42:00,80.0,78.0,29.97,West,270,0.0,0.0,93,0.00,,,0.00,TxWx,2013-07-19 11:42:00,
2013-07-19 06:43:00,80.0,78.0,29.97,West,270,0.0,0.0,93,0.00,,,0.00,TxWx,2013-07-19 11:43:00,
2013-07-19 06:46:00,80.0,78.0,29.97,West,270,0.0,0.0,93,0.00,,,0.00,TxWx,2013-07-19 11:46:00,
2013-07-19 06:48:00,80.0,78.0,29.97,West,270,0.0,0.0,93,0.00,,,0.00,TxWx,2013-07-19 11:48:00,
2013-07-19 06:49:00,80.0,78.0,29.97,West,270,0.0,1.0,93,0.00,,,0.00,TxWx,2013-07-19 11:49:00,
2013-07-19 06:52:00,80.0,78.0,29.98,West,270,1.0,1.0,93,0.00,,,0.00,TxWx,2013-07-19 11:52:00,
2013-07-19 06:54:00,80.0,78.0,29.97,SW,225,0.0,0.0,93,0.00,,,0.00,TxWx,2013-07-19 11:54:00,
2013-07-19 06:55:00,80.0,78.0,29.97,SW,225,0.0,0.0,93,0.00,,,0.00,TxWx,2013-07-19 11:55:00,
2013-07-19 06:58:00,80.0,78.0,29.97,SSW,202,1.0,1.0,93,0.00,,,0.00,TxWx,2013-07-19 11:58:00,
2013-07-19 07:00:00,80.0,78.0,29.97,SW,225,1.0,1.0,93,0.00,,,0.00,TxWx,2013-07-19 12:00:00,
2013-07-19 07:01:00,80.0,78.0,29.97,WSW,247,0.0,0.0,93,0.00,,,0.00,TxWx,2013-07-19 12:01:00,
2013-07-19 07:05:00,80.0,78.0,29.98,WSW,247,0.0,0.0,93,0.00,,,0.00,TxWx,2013-07-19 12:05:00,
2013-07-19 07:06:00,80.0,78.0,29.98,West,270,0.0,0.0,93,0.00,,,0.00,TxWx,2013-07-19 12:06:00,
2013-07-19 07:07:00,80.0,78.0,29.98,WNW,292,0.0,0.0,93,0.00,,,0.00,TxWx,2013-07-19 12:07:00,
2013-07-19 07:10:00,80.0,78.0,29.98,West,270,1.0,1.0,93,0.00,,,0.00,TxWx,2013-07-19 12:10:00,
2013-07-19 07:12:00,80.0,78.0,29.98,West,270,0.0,0.0,93,0.00,,,0.00,TxWx,2013-07-19 12:12:00,
2013-07-19 07:14:00,80.0,78.0,29.98,West,270,1.0,1.0,93,0.00,,,0.00,TxWx,2013-07-19 12:14:00,
2013-07-19 07:15:00,80.0,78.0,29.98,WNW,292,1.0,1.0,93,0.00,,,0.00,TxWx,2013-07-19 12:15:00,
2013-07-19 07:16:00,80.0,78.0,29.98,WNW,292,1.0,1.0,93,0.00,,,0.00,TxWx,2013-07-19 12:16:00,
2013-07-19 07:18:00,80.0,78.0,29.98,WNW,292,1.0,1.0,93,0.00,,,0.00,TxWx,2013-07-19 12:18:00,
2013-07-19 07:19:00,80.0,78.0,29.98,WNW,292,1.0,1.0,93,0.00,,,0.00,TxWx,2013-07-19 12:19:00,
2013-07-19 07:21:00,80.0,78.0,29.98,West,270,1.0,1.0,93,0.00,,,0.00,TxWx,2013-07-19 12:21:00,
2013-07-19 07:23:00,80.0,78.0,29.98,West,270,1.0,1.0,93,0.00,,,0.00,TxWx,2013-07-19 12:23:00,
2013-07-19 07:24:00,80.0,78.0,29.98,West,270,2.0,2.0,93,0.00,,,0.00,TxWx,2013-07-19 12:24:00,
2013-07-19 07:26:00,80.0,78.0,29.98,West,270,1.0,1.0,93,0.00,,,0.00,TxWx,2013-07-19 12:26:00,
2013-07-19 07:27:00,82.0,80.0,29.98,West,270,1.0,1.0,93,0.00,,,0.00,TxWx,2013-07-19 12:27:00,
2013-07-19 07:28:00,80.0,77.0,29.98,WSW,247,1.0,2.0,92,0.00,,,0.00,TxWx,2013-07-19 12:28:00,
2013-07-19 07:30:00,80.0,77.0,29.98,West,270,1.0,1.0,92,0.00,,,0.00,TxWx,2013-07-19 12:30:00,
2013-07-19 07:32:00,80.0,77.0,29.98,West,270,1.0,1.0,92,0.00,,,0.00,TxWx,2013-07-19 12:32:00,
2013-07-19 07:35:00,80.0,77.0,29.98,WNW,292,1.0,2.0,92,0.00,,,0.00,TxWx,2013-07-19 12:35:00,
2013-07-19 07:36:00,80.0,77.0,29.98,West,270,1.0,2.0,92,0.00,,,0.00,TxWx,2013-07-19 12:36:00,
2013-07-19 07:38:00,80.0,77.0,29.98,West,270,1.0,2.0,92,0.00,,,0.00,TxWx,2013-07-19 12:38:00,
2013-07-19 07:42:00,80.0,77.0,29.98,WNW,292,1.0,2.0,92,0.00,,,0.00,TxWx,2013-07-19 12:42:00,
2013-07-19 07:43:00,80.0,77.0,29.98,WNW,292,2.0,2.0,92,0.00,,,0.00,TxWx,2013-07-19 12:43:00,
2013-07-19 07:44:00,80.0,77.0,29.98,West,270,1.0,1.0,92,0.00,,,0.00,TxWx,2013-07-19 12:44:00,
2013-07-19 07:45:00,80.0,77.0,29.98,West,270,1.0,1.0,92,0.00,,,0.00,TxWx,2013-07-19 12:45:00,
2013-07-19 07:47:00,81.0,78.0,29.98,WNW,292,1.0,1.0,92,0.00,,,0.00,TxWx,2013-07-19 12:47:00,
2013-07-19 07:49:00,81.0,78.0,29.98,West,270,1.0,1.0,92,0.00,,,0.00,TxWx,2013-07-19 12:49:00,
2013-07-19 07:53:00,81.0,78.0,29.98,NW,315,1.0,1.0,92,0.00,,,0.00,TxWx,2013-07-19 12:53:00,
2013-07-19 07:54:00,81.0,78.0,29.98,NW,315,1.0,1.0,92,0.00,,,0.00,TxWx,2013-07-19 12:54:00,
2013-07-19 07:55:00,81.0,78.0,29.98,NNW,337,1.0,1.0,92,0.00,,,0.00,TxWx,2013-07-19 12:55:00,
2013-07-19 07:57:00,81.0,78.0,29.98,West,270,1.0,1.0,92,0.00,,,0.00,TxWx,2013-07-19 12:57:00,
2013-07-19 07:59:00,81.0,78.0,29.98,West,270,0.0,1.0,92,0.00,,,0.00,TxWx,2013-07-19 12:59:00,
2013-07-19 08:00:00,81.0,78.0,29.98,WSW,247,1.0,1.0,92,0.00,,,0.00,TxWx,2013-07-19 13:00:00,
2013-07-19 08:02:00,81.0,78.0,29.98,WSW,247,1.0,1.0,92,0.00,,,0.00,TxWx,2013-07-19 13:02:00,
2013-07-19 08:03:00,81.0,78.0,29.98,WSW,247,1.0,1.0,92,0.00,,,0.00,TxWx,2013-07-19 13:03:00,
2013-07-19 08:05:00,81.0,78.0,29.98,West,270,1.0,1.0,92,0.00,,,0.00,TxWx,2013-07-19 13:05:00,
2013-07-19 08:06:00,81.0,78.0,29.98,WSW,247,1.0,1.0,92,0.00,,,0.00,TxWx,2013-07-19 13:06:00,
2013-07-19 08:07:00,82.0,79.0,29.98,WSW,247,1.0,1.0,92,0.00,,,0.00,TxWx,2013-07-19 13:07:00,
2013-07-19 08:10:00,82.0,79.0,29.98,WSW,247,1.0,1.0,92,0.00,,,0.00,TxWx,2013-07-19 13:10:00,
2013-07-19 08:11:00,82.0,79.0,29.99,SW,225,1.0,1.0,92,0.00,,,0.00,TxWx,2013-07-19 13:11:00,
2013-07-19 08:12:00,82.0,79.0,29.99,WSW,247,1.0,1.0,92,0.00,,,0.00,TxWx,2013-07-19 13:12:00,
2013-07-19 08:14:00,82.0,79.0,29.99,SSW,202,1.0,1.0,92,0.00,,,0.00,TxWx,2013-07-19 13:14:00,
2013-07-19 08:15:00,81.0,78.0,29.99,South,180,3.0,3.0,92,0.00,,,0.00,TxWx,2013-07-19 13:15:00,
2013-07-19 08:16:00,82.0,79.0,29.99,SSE,157,3.0,3.0,92,0.00,,,0.00,TxWx,2013-07-19 13:16:00,
2013-07-19 08:18:00,82.0,79.0,29.99,SSW,202,1.0,1.0,92,0.00,,,0.00,TxWx,2013-07-19 13:18:00,
2013-07-19 08:19:00,82.0,79.0,29.99,WSW,247,1.0,1.0,92,0.00,,,0.00,TxWx,2013-07-19 13:19:00,
2013-07-19 08:21:00,82.0,79.0,29.99,SSW,202,1.0,1.0,92,0.00,,,0.00,TxWx,2013-07-19 13:21:00,
2013-07-19 08:22:00,82.0,79.0,29.99,South,180,2.0,2.0,92,0.00,,,0.00,TxWx,2013-07-19 13:22:00,
2013-07-19 08:26:00,82.0,79.0,29.99,SSE,157,1.0,1.0,91,0.00,,,0.00,TxWx,2013-07-19 13:26:00,
2013-07-19 08:28:00,82.0,79.0,29.99,SE,135,3.0,3.0,91,0.00,,,0.00,TxWx,2013-07-19 13:28:00,
2013-07-19 08:31:00,82.0,79.0,29.99,ENE,67,3.0,3.0,90,0.00,,,0.00,TxWx,2013-07-19 13:31:00,
2013-07-19 08:32:00,82.0,79.0,29.99,ESE,112,4.0,4.0,90,0.00,,,0.00,TxWx,2013-07-19 13:32:00,
2013-07-19 08:34:00,82.0,79.0,29.99,SE,135,3.0,3.0,90,0.00,,,0.00,TxWx,2013-07-19 13:34:00,
2013-07-19 08:36:00,82.0,78.0,29.99,East,90,1.0,1.0,89,0.00,,,0.00,TxWx,2013-07-19 13:36:00,
2013-07-19 08:37:00,83.0,79.0,29.99,East,90,3.0,3.0,89,0.00,,,0.00,TxWx,2013-07-19 13:37:00,
2013-07-19 08:38:00,83.0,79.0,29.99,ESE,112,2.0,3.0,89,0.00,,,0.00,TxWx,2013-07-19 13:38:00,
2013-07-19 08:40:00,83.0,79.0,29.99,ESE,112,2.0,3.0,89,0.00,,,0.00,TxWx,2013-07-19 13:40:00,
2013-07-19 08:41:00,83.0,79.0,29.99,SE,135,3.0,3.0,89,0.00,,,0.00,TxWx,2013-07-19 13:41:00,
2013-07-19 08:42:00,83.0,79.0,29.99,ESE,112,3.0,3.0,89,0.00,,,0.00,TxWx,2013-07-19 13:42:00,
2013-07-19 08:43:00,83.0,79.0,29.99,ENE,67,1.0,3.0,89,0.00,,,0.00,TxWx,2013-07-19 13:43:00,
2013-07-19 08:45:00,83.0,79.0,29.99,East,90,2.0,2.0,88,0.00,,,0.00,TxWx,2013-07-19 13:45:00,
2013-07-19 08:46:00,83.0,79.0,29.99,ENE,67,2.0,2.0,88,0.00,,,0.00,TxWx,2013-07-19 13:46:00,
2013-07-19 08:47:00,83.0,79.0,30.00,East,90,2.0,3.0,88,0.00,,,0.00,TxWx,2013-07-19 13:47:00,
2013-07-19 08:49:00,83.0,79.0,29.99,East,90,3.0,3.0,88,0.00,,,0.00,TxWx,2013-07-19 13:49:00,
2013-07-19 08:50:00,83.0,79.0,30.00,ESE,112,3.0,3.0,88,0.00,,,0.00,TxWx,2013-07-19 13:50:00,
2013-07-19 08:51:00,83.0,79.0,30.00,ESE,112,3.0,3.0,87,0.00,,,0.00,TxWx,2013-07-19 13:51:00,
2013-07-19 08:52:00,83.0,79.0,29.99,East,90,3.0,3.0,87,0.00,,,0.00,TxWx,2013-07-19 13:52:00,
2013-07-19 08:53:00,83.0,79.0,30.00,ESE,112,3.0,3.0,87,0.00,,,0.00,TxWx,2013-07-19 13:53:00,
2013-07-19 08:54:00,83.0,79.0,30.00,SE,135,4.0,4.0,87,0.00,,,0.00,TxWx,2013-07-19 13:54:00,
2013-07-19 08:56:00,83.0,78.0,29.99,NNE,22,3.0,3.0,86,0.00,,,0.00,TxWx,2013-07-19 13:56:00,
2013-07-19 08:58:00,83.0,78.0,29.99,ESE,112,4.0,5.0,86,0.00,,,0.00,TxWx,2013-07-19 13:58:00,
2013-07-19 08:59:00,83.0,78.0,29.99,ENE,67,2.0,2.0,86,0.00,,,0.00,TxWx,2013-07-19 13:59:00,
2013-07-19 09:02:00,84.0,79.0,29.99,NE,45,2.0,3.0,86,0.00,,,0.00,TxWx,2013-07-19 14:02:00,
2013-07-19 09:04:00,83.0,78.0,30.00,ESE,112,4.0,5.0,85,0.00,,,0.00,TxWx,2013-07-19 14:04:00,
2013-07-19 09:05:00,84.0,79.0,30.00,East,90,3.0,4.0,85,0.00,,,0.00,TxWx,2013-07-19 14:05:00,
2013-07-19 09:07:00,83.0,78.0,30.00,ESE,112,4.0,4.0,85,0.00,,,0.00,TxWx,2013-07-19 14:07:00,
2013-07-19 09:08:00,83.0,78.0,30.00,ESE,112,3.0,4.0,85,0.00,,,0.00,TxWx,2013-07-19 14:08:00,
2013-07-19 09:11:00,84.0,79.0,30.00,ESE,112,3.0,4.0,85,0.00,,,0.00,TxWx,2013-07-19 14:11:00,
2013-07-19 09:12:00,83.0,78.0,30.00,East,90,4.0,4.0,85,0.00,,,0.00,TxWx,2013-07-19 14:12:00,
2013-07-19 09:14:00,84.0,79.0,30.00,East,90,3.0,4.0,85,0.00,,,0.00,TxWx,2013-07-19 14:14:00,
2013-07-19 09:15:00,84.0,79.0,30.00,SE,135,4.0,4.0,84,0.00,,,0.00,TxWx,2013-07-19 14:15:00,
2013-07-19 09:16:00,84.0,79.0,30.00,ESE,112,3.0,3.0,84,0.00,,,0.00,TxWx,2013-07-19 14:16:00,
2013-07-19 09:19:00,83.0,77.0,30.00,East,90,3.0,3.0,84,0.00,,,0.00,TxWx,2013-07-19 14:19:00,
2013-07-19 09:20:00,84.0,79.0,30.00,East,90,3.0,4.0,84,0.00,,,0.00,TxWx,2013-07-19 14:20:00,
2013-07-19 09:21:00,84.0,78.0,30.00,East,90,4.0,4.0,84,0.00,,,0.00,TxWx,2013-07-19 14:21:00,
2013-07-19 09:22:00,84.0,78.0,30.00,East,90,5.0,6.0,84,0.00,,,0.00,TxWx,2013-07-19 14:22:00,
2013-07-19 09:25:00,84.0,78.0,30.00,NE,45,3.0,3.0,84,0.00,,,0.00,TxWx,2013-07-19 14:25:00,
2013-07-19 09:27:00,84.0,78.0,30.00,ESE,112,4.0,4.0,84,0.00,,,0.00,TxWx,2013-07-19 14:27:00,
2013-07-19 09:28:00,84.0,78.0,30.00,East,90,4.0,4.0,83,0.00,,,0.00,TxWx,2013-07-19 14:28:00,
2013-07-19 09:31:00,84.0,78.0,30.00,SE,135,4.0,4.0,83,0.00,,,0.00,TxWx,2013-07-19 14:31:00,
2013-07-19 09:32:00,84.0,78.0,30.00,ENE,67,5.0,5.0,83,0.00,,,0.00,TxWx,2013-07-19 14:32:00,
2013-07-19 09:34:00,84.0,78.0,30.00,ESE,112,3.0,4.0,83,0.00,,,0.00,TxWx,2013-07-19 14:34:00,
2013-07-19 09:35:00,84.0,78.0,30.00,ESE,112,5.0,5.0,83,0.00,,,0.00,TxWx,2013-07-19 14:35:00,
2013-07-19 09:36:00,84.0,78.0,30.00,ENE,67,4.0,5.0,83,0.00,,,0.00,TxWx,2013-07-19 14:36:00,
2013-07-19 09:39:00,84.0,78.0,30.00,ESE,112,5.0,5.0,82,0.00,,,0.00,TxWx,2013-07-19 14:39:00,
2013-07-19 09:41:00,84.0,78.0,30.00,East,90,5.0,5.0,82,0.00,,,0.00,TxWx,2013-07-19 14:41:00,
2013-07-19 09:42:00,84.0,78.0,30.00,ESE,112,3.0,3.0,83,0.00,,,0.00,TxWx,2013-07-19 14:42:00,
2013-07-19 09:43:00,84.0,78.0,30.00,East,90,5.0,5.0,82,0.00,,,0.00,TxWx,2013-07-19 14:43:00,
2013-07-19 09:44:00,84.0,78.0,30.00,ESE,112,3.0,4.0,82,0.00,,,0.00,TxWx,2013-07-19 14:44:00,
2013-07-19 09:46:00,84.0,78.0,30.00,East,90,5.0,5.0,82,0.00,,,0.00,TxWx,2013-07-19 14:46:00,
2013-07-19 09:48:00,84.0,78.0,30.00,ENE,67,3.0,3.0,82,0.00,,,0.00,TxWx,2013-07-19 14:48:00,
2013-07-19 09:49:00,84.0,78.0,30.00,East,90,5.0,6.0,82,0.00,,,0.00,TxWx,2013-07-19 14:49:00,
2013-07-19 09:50:00,84.0,78.0,30.00,ENE,67,5.0,5.0,82,0.00,,,0.00,TxWx,2013-07-19 14:50:00,
2013-07-19 09:54:00,84.0,78.0,30.00,East,90,3.0,4.0,82,0.00,,,0.00,TxWx,2013-07-19 14:54:00,
2013-07-19 09:56:00,84.0,78.0,29.99,East,90,6.0,6.0,83,0.00,,,0.00,TxWx,2013-07-19 14:56:00,
2013-07-19 09:57:00,84.0,78.0,29.99,NE,45,5.0,6.0,82,0.00,,,0.00,TxWx,2013-07-19 14:57:00,
2013-07-19 09:58:00,84.0,78.0,29.99,ENE,67,4.0,4.0,83,0.00,,,0.00,TxWx,2013-07-19 14:58:00,
2013-07-19 10:01:00,84.0,78.0,29.99,East,90,5.0,5.0,83,0.00,,,0.00,TxWx,2013-07-19 15:01:00,
2013-07-19 10:03:00,84.0,78.0,29.99,East,90,5.0,5.0,83,0.00,,,0.00,TxWx,2013-07-19 15:03:00,
2013-07-19 10:04:00,84.0,78.0,29.99,East,90,4.0,5.0,83,0.00,,,0.00,TxWx,2013-07-19 15:04:00,
2013-07-19 10:06:00,84.0,78.0,29.99,ENE,67,4.0,4.0,82,0.00,,,0.00,TxWx,2013-07-19 15:06:00,
2013-07-19 10:09:00,85.0,79.0,29.99,East,90,5.0,5.0,83,0.00,,,0.00,TxWx,2013-07-19 15:09:00,
2013-07-19 10:11:00,84.0,78.0,29.99,ENE,67,5.0,5.0,82,0.00,,,0.00,TxWx,2013-07-19 15:11:00,
2013-07-19 10:12:00,84.0,78.0,29.99,East,90,6.0,6.0,82,0.00,,,0.00,TxWx,2013-07-19 15:12:00,
2013-07-19 10:14:00,85.0,79.0,29.99,ESE,112,3.0,4.0,82,0.00,,,0.00,TxWx,2013-07-19 15:14:00,
2013-07-19 10:15:00,84.0,78.0,29.99,East,90,3.0,3.0,82,0.00,,,0.00,TxWx,2013-07-19 15:15:00,
2013-07-19 10:17:00,85.0,79.0,29.99,East,90,4.0,5.0,82,0.00,,,0.00,TxWx,2013-07-19 15:17:00,
2013-07-19 10:19:00,85.0,79.0,29.99,ESE,112,6.0,6.0,82,0.00,,,0.00,TxWx,2013-07-19 15:19:00,
2013-07-19 10:20:00,85.0,79.0,29.99,East,90,6.0,6.0,82,0.00,,,0.00,TxWx,2013-07-19 15:20:00,
2013-07-19 10:21:00,85.0,78.0,29.99,ESE,112,3.0,4.0,81,0.00,,,0.00,TxWx,2013-07-19 15:21:00,
2013-07-19 10:23:00,85.0,78.0,29.99,ENE,67,5.0,5.0,81,0.00,,,0.00,TxWx,2013-07-19 15:23:00,
2013-07-19 10:25:00,84.0,78.0,29.99,East,90,4.0,4.0,81,0.00,,,0.00,TxWx,2013-07-19 15:25:00,
2013-07-19 10:26:00,85.0,78.0,29.99,SE,135,5.0,5.0,81,0.00,,,0.00,TxWx,2013-07-19 15:26:00,
2013-07-19 10:27:00,85.0,79.0,29.99,ESE,112,5.0,5.0,82,0.00,,,0.00,TxWx,2013-07-19 15:27:00,
2013-07-19 10:29:00,85.0,78.0,29.99,ESE,112,5.0,5.0,81,0.00,,,0.00,TxWx,2013-07-19 15:29:00,
2013-07-19 10:30:00,85.0,78.0,29.99,ESE,112,6.0,6.0,81,0.00,,,0.00,TxWx,2013-07-19 15:30:00,
2013-07-19 10:32:00,85.0,78.0,29.99,East,90,3.0,3.0,81,0.00,,,0.00,TxWx,2013-07-19 15:32:00,
2013-07-19 10:34:00,84.0,78.0,29.99,ESE,112,4.0,5.0,81,0.00,,,0.00,TxWx,2013-07-19 15:34:00,
2013-07-19 10:36:00,85.0,78.0,29.99,ENE,67,4.0,4.0,81,0.00,,,0.00,TxWx,2013-07-19 15:36:00,
2013-07-19 10:38:00,85.0,78.0,29.99,ESE,112,6.0,6.0,81,0.00,,,0.00,TxWx,2013-07-19 15:38:00,
2013-07-19 10:39:00,85.0,78.0,29.99,East,90,5.0,5.0,81,0.00,,,0.00,TxWx,2013-07-19 15:39:00,
2013-07-19 10:40:00,84.0,77.0,29.99,ENE,67,5.0,5.0,81,0.00,,,0.00,TxWx,2013-07-19 15:40:00,
2013-07-19 10:41:00,85.0,78.0,29.99,East,90,5.0,5.0,81,0.00,,,0.00,TxWx,2013-07-19 15:41:00,
2013-07-19 10:42:00,85.0,78.0,29.99,ENE,67,5.0,5.0,81,0.00,,,0.00,TxWx,2013-07-19 15:42:00,
2013-07-19 10:43:00,85.0,78.0,29.99,ENE,67,5.0,6.0,81,0.00,,,0.00,TxWx,2013-07-19 15:43:00,
2013-07-19 10:44:00,85.0,78.0,29.99,ESE,112,3.0,4.0,81,0.00,,,0.00,TxWx,2013-07-19 15:44:00,
2013-07-19 10:47:00,85.0,79.0,29.99,East,90,4.0,5.0,82,0.00,,,0.00,TxWx,2013-07-19 15:47:00,
2013-07-19 10:49:00,85.0,78.0,29.99,ENE,67,3.0,3.0,81,0.00,,,0.00,TxWx,2013-07-19 15:49:00,
2013-07-19 10:50:00,85.0,79.0,29.99,East,90,5.0,5.0,82,0.00,,,0.00,TxWx,2013-07-19 15:50:00,
2013-07-19 10:52:00,84.0,78.0,29.99,SE,135,5.0,5.0,81,0.00,,,0.00,TxWx,2013-07-19 15:52:00,
2013-07-19 10:53:00,85.0,79.0,29.99,ENE,67,4.0,4.0,82,0.00,,,0.00,TxWx,2013-07-19 15:53:00,
2013-07-19 10:55:00,85.0,78.0,29.99,NE,45,3.0,4.0,81,0.00,,,0.00,TxWx,2013-07-19 15:55:00,
2013-07-19 10:56:00,85.0,79.0,29.99,ESE,112,5.0,5.0,82,0.00,,,0.00,TxWx,2013-07-19 15:56:00,
2013-07-19 10:57:00,85.0,78.0,29.99,East,90,3.0,4.0,81,0.00,,,0.00,TxWx,2013-07-19 15:57:00,
2013-07-19 11:00:00,84.0,77.0,29.99,East,90,5.0,5.0,81,0.00,,,0.00,TxWx,2013-07-19 16:00:00,
2013-07-19 11:02:00,84.0,78.0,29.99,East,90,6.0,6.0,81,0.00,,,0.00,TxWx,2013-07-19 16:02:00,
2013-07-19 11:03:00,84.0,78.0,29.99,ENE,67,5.0,6.0,81,0.00,,,0.00,TxWx,2013-07-19 16:03:00,
2013-07-19 11:05:00,85.0,79.0,29.99,East,90,4.0,5.0,82,0.00,,,0.00,TxWx,2013-07-19 16:05:00,
2013-07-19 11:08:00,85.0,79.0,29.99,East,90,5.0,5.0,82,0.00,,,0.00,TxWx,2013-07-19 16:08:00,
2013-07-19 11:09:00,85.0,79.0,29.99,East,90,5.0,5.0,82,0.00,,,0.00,TxWx,2013-07-19 16:09:00,
2013-07-19 11:10:00,85.0,78.0,29.99,ESE,112,6.0,6.0,81,0.00,,,0.00,TxWx,2013-07-19 16:10:00,
2013-07-19 11:11:00,85.0,78.0,29.99,ENE,67,6.0,6.0,81,0.00,,,0.00,TxWx,2013-07-19 16:11:00,
2013-07-19 11:14:00,85.0,78.0,29.99,ENE,67,3.0,3.0,81,0.00,,,0.00,TxWx,2013-07-19 16:14:00,
2013-07-19 11:15:00,85.0,79.0,29.99,ENE,67,3.0,3.0,82,0.00,,,0.00,TxWx,2013-07-19 16:15:00,
2013-07-19 11:16:00,85.0,79.0,29.99,ESE,112,5.0,6.0,82,0.00,,,0.00,TxWx,2013-07-19 16:16:00,
2013-07-19 11:17:00,85.0,78.0,29.99,ENE,67,5.0,5.0,81,0.00,,,0.00,TxWx,2013-07-19 16:17:00,
2013-07-19 11:19:00,85.0,78.0,29.98,SE,135,6.0,6.0,81,0.00,,,0.00,TxWx,2013-07-19 16:19:00,
2013-07-19 11:21:00,85.0,78.0,29.99,ENE,67,8.0,8.0,81,0.00,,,0.00,TxWx,2013-07-19 16:21:00,
2013-07-19 11:22:00,85.0,78.0,29.99,East,90,5.0,6.0,81,0.00,,,0.00,TxWx,2013-07-19 16:22:00,
2013-07-19 11:25:00,85.0,78.0,29.99,ESE,112,5.0,6.0,81,0.00,,,0.00,TxWx,2013-07-19 16:25:00,
2013-07-19 11:26:00,85.0,78.0,29.98,East,90,4.0,5.0,81,0.00,,,0.00,TxWx,2013-07-19 16:26:00,
2013-07-19 11:27:00,85.0,79.0,29.98,ESE,112,6.0,6.0,82,0.00,,,0.00,TxWx,2013-07-19 16:27:00,
2013-07-19 11:30:00,85.0,79.0,29.98,ESE,112,7.0,7.0,82,0.00,,,0.00,TxWx,2013-07-19 16:30:00,
2013-07-19 11:31:00,85.0,79.0,29.98,ESE,112,5.0,5.0,82,0.00,,,0.00,TxWx,2013-07-19 16:31:00,
2013-07-19 11:32:00,85.0,79.0,29.98,East,90,6.0,7.0,82,0.00,,,0.00,TxWx,2013-07-19 16:32:00,
2013-07-19 11:33:00,85.0,78.0,29.98,ESE,112,5.0,7.0,81,0.00,,,0.00,TxWx,2013-07-19 16:33:00,
2013-07-19 11:36:00,85.0,78.0,29.98,ESE,112,5.0,5.0,81,0.00,,,0.00,TxWx,2013-07-19 16:36:00,
2013-07-19 11:37:00,85.0,78.0,29.98,SE,135,6.0,7.0,81,0.00,,,0.00,TxWx,2013-07-19 16:37:00,
2013-07-19 11:38:00,85.0,78.0,29.98,ESE,112,6.0,6.0,81,0.00,,,0.00,TxWx,2013-07-19 16:38:00,
2013-07-19 11:39:00,85.0,78.0,29.98,ESE,112,8.0,8.0,81,0.00,,,0.00,TxWx,2013-07-19 16:39:00,
2013-07-19 11:41:00,85.0,78.0,29.98,East,90,6.0,6.0,81,0.00,,,0.00,TxWx,2013-07-19 16:41:00,
2013-07-19 11:42:00,85.0,78.0,29.98,East,90,5.0,5.0,81,0.00,,,0.00,TxWx,2013-07-19 16:42:00,
2013-07-19 11:43:00,85.0,78.0,29.98,East,90,8.0,8.0,81,0.00,,,0.00,TxWx,2013-07-19 16:43:00,
2013-07-19 11:44:00,85.0,78.0,29.98,East,90,5.0,5.0,80,0.00,,,0.00,TxWx,2013-07-19 16:44:00,
2013-07-19 11:47:00,85.0,78.0,29.98,East,90,5.0,6.0,80,0.00,,,0.00,TxWx,2013-07-19 16:47:00,
2013-07-19 11:49:00,85.0,78.0,29.98,East,90,6.0,6.0,80,0.00,,,0.00,TxWx,2013-07-19 16:49:00,
2013-07-19 11:50:00,85.0,78.0,29.98,East,90,6.0,6.0,80,0.00,,,0.00,TxWx,2013-07-19 16:50:00,
2013-07-19 11:51:00,85.0,78.0,29.98,East,90,5.0,6.0,80,0.00,,,0.00,TxWx,2013-07-19 16:51:00,
2013-07-19 11:54:00,85.0,78.0,29.98,ENE,67,5.0,6.0,80,0.00,,,0.00,TxWx,2013-07-19 16:54:00,
2013-07-19 11:55:00,85.0,78.0,29.98,East,90,7.0,7.0,80,0.00,,,0.00,TxWx,2013-07-19 16:55:00,
2013-07-19 11:56:00,86.0,79.0,29.98,SE,135,7.0,7.0,80,0.00,,,0.00,TxWx,2013-07-19 16:56:00,
2013-07-19 11:57:00,85.0,78.0,29.98,SE,135,9.0,10.0,80,0.00,,,0.00,TxWx,2013-07-19 16:57:00,
2013-07-19 11:59:00,85.0,78.0,29.98,East,90,6.0,7.0,79,0.00,,,0.00,TxWx,2013-07-19 16:59:00,
2013-07-19 12:02:00,85.0,78.0,29.98,ESE,112,9.0,9.0,79,0.00,,,0.00,TxWx,2013-07-19 17:02:00,
2013-07-19 12:04:00,85.0,78.0,29.98,ESE,112,6.0,7.0,79,0.00,,,0.00,TxWx,2013-07-19 17:04:00,
2013-07-19 12:06:00,85.0,78.0,29.98,ESE,112,8.0,8.0,79,0.00,,,0.00,TxWx,2013-07-19 17:06:00,
2013-07-19 12:07:00,85.0,78.0,29.98,SE,135,9.0,9.0,79,0.00,,,0.00,TxWx,2013-07-19 17:07:00,
2013-07-19 12:09:00,85.0,78.0,29.98,ESE,112,8.0,8.0,79,0.00,,,0.00,TxWx,2013-07-19 17:09:00,
2013-07-19 12:10:00,85.0,78.0,29.98,ESE,112,8.0,9.0,79,0.00,,,0.00,TxWx,2013-07-19 17:10:00,
2013-07-19 12:11:00,85.0,78.0,29.98,ESE,112,8.0,9.0,79,0.00,,,0.00,TxWx,2013-07-19 17:11:00,
2013-07-19 12:12:00,85.0,78.0,29.98,ESE,112,11.0,11.0,80,0.00,,,0.00,TxWx,2013-07-19 17:12:00,
2013-07-19 12:13:00,85.0,78.0,29.98,East,90,8.0,8.0,79,0.00,,,0.00,TxWx,2013-07-19 17:13:00,
2013-07-19 12:15:00,85.0,78.0,29.97,ESE,112,10.0,10.0,80,0.00,,,0.00,TxWx,2013-07-19 17:15:00,
2013-07-19 12:16:00,85.0,78.0,29.98,East,90,9.0,11.0,79,0.00,,,0.00,TxWx,2013-07-19 17:16:00,
2013-07-19 12:17:00,85.0,78.0,29.98,ESE,112,11.0,12.0,79,0.00,,,0.00,TxWx,2013-07-19 17:17:00,
2013-07-19 12:19:00,85.0,78.0,29.98,East,90,8.0,8.0,80,0.00,,,0.00,TxWx,2013-07-19 17:19:00,
2013-07-19 12:21:00,85.0,78.0,29.98,ESE,112,10.0,10.0,80,0.00,,,0.00,TxWx,2013-07-19 17:21:00,
2013-07-19 12:23:00,85.0,78.0,29.98,ESE,112,6.0,8.0,80,0.00,,,0.00,TxWx,2013-07-19 17:23:00,
2013-07-19 12:24:00,85.0,78.0,29.98,ESE,112,8.0,8.0,80,0.00,,,0.00,TxWx,2013-07-19 17:24:00,
2013-07-19 12:25:00,85.0,78.0,29.98,ESE,112,10.0,11.0,80,0.00,,,0.00,TxWx,2013-07-19 17:25:00,
2013-07-19 12:26:00,85.0,78.0,29.98,ENE,67,7.0,8.0,80,0.00,,,0.00,TxWx,2013-07-19 17:26:00,
2013-07-19 12:29:00,85.0,78.0,29.98,East,90,6.0,6.0,80,0.00,,,0.00,TxWx,2013-07-19 17:29:00,
2013-07-19 12:31:00,85.0,78.0,29.97,SE,135,8.0,9.0,80,0.00,,,0.00,TxWx,2013-07-19 17:31:00,
2013-07-19 12:32:00,85.0,78.0,29.98,ESE,112,6.0,6.0,80,0.00,,,0.00,TxWx,2013-07-19 17:32:00,
2013-07-19 12:33:00,86.0,79.0,29.98,East,90,10.0,10.0,80,0.00,,,0.00,TxWx,2013-07-19 17:33:00,
2013-07-19 12:35:00,85.0,78.0,29.98,SE,135,9.0,9.0,79,0.00,,,0.00,TxWx,2013-07-19 17:35:00,
2013-07-19 12:36:00,85.0,78.0,29.98,SE,135,8.0,8.0,79,0.00,,,0.00,TxWx,2013-07-19 17:36:00,
2013-07-19 12:37:00,86.0,78.0,29.98,East,90,10.0,10.0,79,0.00,,,0.00,TxWx,2013-07-19 17:37:00,
2013-07-19 12:40:00,85.0,77.0,29.98,ESE,112,7.0,8.0,78,0.00,,,0.00,TxWx,2013-07-19 17:40:00,
2013-07-19 12:41:00,85.0,77.0,29.98,SE,135,9.0,10.0,78,0.00,,,0.00,TxWx,2013-07-19 17:41:00,
2013-07-19 12:42:00,86.0,78.0,29.98,ENE,67,7.0,7.0,78,0.00,,,0.00,TxWx,2013-07-19 17:42:00,
2013-07-19 12:45:00,86.0,78.0,29.98,East,90,8.0,8.0,79,0.00,,,0.00,TxWx,2013-07-19 17:45:00,
2013-07-19 12:46:00,85.0,78.0,29.98,ESE,112,10.0,10.0,79,0.00,,,0.00,TxWx,2013-07-19 17:46:00,
2013-07-19 12:48:00,85.0,77.0,29.97,ESE,112,11.0,11.0,78,0.00,,,0.00,TxWx,2013-07-19 17:48:00,
2013-07-19 12:49:00,85.0,77.0,29.97,ESE,112,10.0,10.0,78,0.00,,,0.00,TxWx,2013-07-19 17:49:00,
2013-07-19 12:50:00,85.0,77.0,29.97,East,90,8.0,10.0,78,0.00,,,0.00,TxWx,2013-07-19 17:50:00,
2013-07-19 12:53:00,85.0,77.0,29.97,ESE,112,8.0,8.0,78,0.00,,,0.00,TxWx,2013-07-19 17:53:00,
2013-07-19 12:54:00,85.0,77.0,29.97,SE,135,9.0,9.0,78,0.00,,,0.00,TxWx,2013-07-19 17:54:00,
2013-07-19 12:55:00,86.0,78.0,29.98,East,90,8.0,9.0,78,0.00,,,0.00,TxWx,2013-07-19 17:55:00,
2013-07-19 12:56:00,86.0,78.0,29.97,SE,135,8.0,8.0,78,0.00,,,0.00,TxWx,2013-07-19 17:56:00,
2013-07-19 13:00:00,85.0,77.0,29.97,ESE,112,8.0,8.0,78,0.00,,,0.00,TxWx,2013-07-19 18:00:00,
2013-07-19 13:02:00,86.0,78.0,29.97,East,90,10.0,10.0,78,0.00,,,0.00,TxWx,2013-07-19 18:02:00,
2013-07-19 13:03:00,85.0,77.0,29.97,SE,135,10.0,10.0,78,0.00,,,0.00,TxWx,2013-07-19 18:03:00,
2013-07-19 13:06:00,85.0,77.0,29.97,SE,135,6.0,7.0,78,0.00,,,0.00,TxWx,2013-07-19 18:06:00,
2013-07-19 13:08:00,86.0,78.0,29.97,SE,135,10.0,11.0,78,0.00,,,0.00,TxWx,2013-07-19 18:08:00,
2013-07-19 13:10:00,86.0,78.0,29.97,ESE,112,8.0,8.0,79,0.00,,,0.00,TxWx,2013-07-19 18:10:00,
2013-07-19 13:11:00,85.0,77.0,29.97,ESE,112,7.0,8.0,78,0.00,,,0.00,TxWx,2013-07-19 18:11:00,
2013-07-19 13:12:00,86.0,78.0,29.97,ESE,112,6.0,8.0,78,0.00,,,0.00,TxWx,2013-07-19 18:12:00,
2013-07-19 13:13:00,85.0,77.0,29.97,East,90,8.0,8.0,78,0.00,,,0.00,TxWx,2013-07-19 18:13:00,
2013-07-19 13:15:00,86.0,78.0,29.97,SE,135,12.0,12.0,79,0.00,,,0.00,TxWx,2013-07-19 18:15:00,
2013-07-19 13:17:00,86.0,78.0,29.97,ESE,112,10.0,12.0,78,0.00,,,0.00,TxWx,2013-07-19 18:17:00,
2013-07-19 13:19:00,86.0,78.0,29.97,East,90,8.0,8.0,79,0.00,,,0.00,TxWx,2013-07-19 18:19:00,
2013-07-19 13:20:00,86.0,78.0,29.97,SE,135,8.0,8.0,79,0.00,,,0.00,TxWx,2013-07-19 18:20:00,
2013-07-19 13:22:00,86.0,78.0,29.97,ESE,112,12.0,13.0,78,0.00,,,0.00,TxWx,2013-07-19 18:22:00,
2013-07-19 13:23:00,86.0,78.0,29.97,ESE,112,12.0,12.0,78,0.00,,,0.00,TxWx,2013-07-19 18:23:00,
2013-07-19 13:26:00,86.0,78.0,29.97,ESE,112,10.0,10.0,78,0.00,,,0.00,TxWx,2013-07-19 18:26:00,
2013-07-19 13:29:00,85.0,77.0,29.97,ESE,112,11.0,11.0,77,0.00,,,0.00,TxWx,2013-07-19 18:29:00,
2013-07-19 13:30:00,86.0,78.0,29.97,East,90,7.0,9.0,78,0.00,,,0.00,TxWx,2013-07-19 18:30:00,
2013-07-19 13:31:00,86.0,78.0,29.97,ESE,112,10.0,10.0,78,0.00,,,0.00,TxWx,2013-07-19 18:31:00,
2013-07-19 13:34:00,85.0,77.0,29.97,SE,135,12.0,12.0,76,0.00,,,0.00,TxWx,2013-07-19 18:34:00,
2013-07-19 13:35:00,86.0,78.0,29.97,East,90,9.0,10.0,77,0.00,,,0.00,TxWx,2013-07-19 18:35:00,
2013-07-19 13:37:00,85.0,77.0,29.97,ESE,112,11.0,11.0,77,0.00,,,0.00,TxWx,2013-07-19 18:37:00,
2013-07-19 13:40:00,85.0,77.0,29.96,ESE,112,9.0,10.0,77,0.00,,,0.00,TxWx,2013-07-19 18:40:00,
2013-07-19 13:42:00,86.0,78.0,29.96,SE,135,6.0,6.0,78,0.00,,,0.00,TxWx,2013-07-19 18:42:00,
2013-07-19 13:43:00,86.0,78.0,29.96,SE,135,8.0,10.0,78,0.00,,,0.00,TxWx,2013-07-19 18:43:00,
2013-07-19 13:45:00,86.0,78.0,29.96,SE,135,9.0,10.0,78,0.00,,,0.00,TxWx,2013-07-19 18:45:00,
2013-07-19 13:46:00,86.0,78.0,29.96,SE,135,8.0,10.0,78,0.00,,,0.00,TxWx,2013-07-19 18:46:00,
2013-07-19 13:47:00,86.0,78.0,29.96,ESE,112,10.0,11.0,78,0.00,,,0.00,TxWx,2013-07-19 18:47:00,
2013-07-19 13:48:00,85.0,77.0,29.96,ESE,112,11.0,12.0,78,0.00,,,0.00,TxWx,2013-07-19 18:48:00,
2013-07-19 13:49:00,85.0,77.0,29.96,SE,135,10.0,10.0,78,0.00,,,0.00,TxWx,2013-07-19 18:49:00,
2013-07-19 13:51:00,85.0,77.0,29.96,ESE,112,12.0,12.0,78,0.00,,,0.00,TxWx,2013-07-19 18:51:00,
2013-07-19 13:53:00,86.0,78.0,29.95,East,90,10.0,10.0,79,0.00,,,0.00,TxWx,2013-07-19 18:53:00,
2013-07-19 13:54:00,86.0,79.0,29.95,ESE,112,11.0,11.0,79,0.00,,,0.00,TxWx,2013-07-19 18:54:00,
2013-07-19 13:57:00,85.0,78.0,29.95,ESE,112,13.0,13.0,79,0.00,,,0.00,TxWx,2013-07-19 18:57:00,
2013-07-19 13:58:00,85.0,78.0,29.95,East,90,13.0,13.0,79,0.00,,,0.00,TxWx,2013-07-19 18:58:00,
2013-07-19 14:00:00,85.0,78.0,29.95,ESE,112,10.0,10.0,80,0.00,,,0.00,TxWx,2013-07-19 19:00:00,
2013-07-19 14:01:00,85.0,78.0,29.95,SE,135,12.0,12.0,80,0.00,,,0.00,TxWx,2013-07-19 19:01:00,
2013-07-19 14:03:00,85.0,78.0,29.95,ESE,112,13.0,13.0,79,0.00,,,0.00,TxWx,2013-07-19 19:03:00,
2013-07-19 14:05:00,86.0,79.0,29.95,SE,135,10.0,12.0,80,0.00,,,0.00,TxWx,2013-07-19 19:05:00,
2013-07-19 14:06:00,85.0,78.0,29.95,SE,135,13.0,13.0,80,0.00,,,0.00,TxWx,2013-07-19 19:06:00,
2013-07-19 14:07:00,85.0,78.0,29.95,ESE,112,11.0,13.0,80,0.00,,,0.00,TxWx,2013-07-19 19:07:00,
2013-07-19 14:09:00,85.0,78.0,29.95,ESE,112,12.0,12.0,80,0.00,,,0.00,TxWx,2013-07-19 19:09:00,
2013-07-19 14:11:00,85.0,78.0,29.95,East,90,11.0,13.0,79,0.00,,,0.00,TxWx,2013-07-19 19:11:00,
2013-07-19 14:12:00,85.0,78.0,29.95,SE,135,13.0,13.0,80,0.00,,,0.00,TxWx,2013-07-19 19:12:00,
2013-07-19 14:13:00,85.0,78.0,29.95,ESE,112,10.0,11.0,79,0.00,,,0.00,TxWx,2013-07-19 19:13:00,
2013-07-19 14:15:00,85.0,78.0,29.95,ESE,112,13.0,13.0,79,0.00,,,0.00,TxWx,2013-07-19 19:15:00,
2013-07-19 14:16:00,85.0,78.0,29.95,SE,135,14.0,14.0,80,0.00,,,0.00,TxWx,2013-07-19 19:16:00,
2013-07-19 14:18:00,85.0,78.0,29.94,ESE,112,13.0,14.0,80,0.00,,,0.00,TxWx,2013-07-19 19:18:00,
2013-07-19 14:19:00,85.0,78.0,29.95,SE,135,13.0,13.0,80,0.00,,,0.00,TxWx,2013-07-19 19:19:00,
2013-07-19 14:21:00,85.0,78.0,29.94,ESE,112,14.0,14.0,79,0.00,,,0.00,TxWx,2013-07-19 19:21:00,
2013-07-19 14:22:00,86.0,79.0,29.94,East,90,11.0,11.0,80,0.00,,,0.00,TxWx,2013-07-19 19:22:00,
2013-07-19 14:24:00,85.0,78.0,29.94,SE,135,13.0,13.0,80,0.00,,,0.00,TxWx,2013-07-19 19:24:00,
2013-07-19 14:25:00,85.0,78.0,29.94,SE,135,12.0,12.0,80,0.00,,,0.00,TxWx,2013-07-19 19:25:00,
2013-07-19 14:29:00,85.0,78.0,29.94,ESE,112,13.0,16.0,79,0.00,,,0.00,TxWx,2013-07-19 19:29:00,
2013-07-19 14:30:00,86.0,79.0,29.94,ESE,112,12.0,12.0,80,0.00,,,0.00,TxWx,2013-07-19 19:30:00,
2013-07-19 14:31:00,86.0,79.0,29.94,ENE,67,10.0,10.0,80,0.00,,,0.00,TxWx,2013-07-19 19:31:00,
2013-07-19 14:35:00,85.0,78.0,29.94,ESE,112,14.0,14.0,79,0.00,,,0.00,TxWx,2013-07-19 19:35:00,
2013-07-19 14:36:00,85.0,78.0,29.94,ESE,112,15.0,15.0,80,0.00,,,0.00,TxWx,2013-07-19 19:36:00,
2013-07-19 14:38:00,85.0,78.0,29.94,ESE,112,13.0,14.0,79,0.00,,,0.00,TxWx,2013-07-19 19:38:00,
2013-07-19 14:40:00,85.0,78.0,29.94,ESE,112,14.0,16.0,79,0.00,,,0.00,TxWx,2013-07-19 19:40:00,
2013-07-19 14:41:00,85.0,78.0,29.94,ESE,112,10.0,10.0,79,0.00,,,0.00,TxWx,2013-07-19 19:41:00,
2013-07-19 14:42:00,85.0,78.0,29.94,ESE,112,13.0,14.0,79,0.00,,,0.00,TxWx,2013-07-19 19:42:00,
2013-07-19 14:43:00,85.0,78.0,29.94,ESE,112,13.0,14.0,80,0.00,,,0.00,TxWx,2013-07-19 19:43:00,
2013-07-19 14:45:00,86.0,79.0,29.94,ESE,112,11.0,13.0,80,0.00,,,0.00,TxWx,2013-07-19 19:45:00,
2013-07-19 14:47:00,85.0,78.0,29.94,ESE,112,11.0,12.0,79,0.00,,,0.00,TxWx,2013-07-19 19:47:00,
2013-07-19 14:48:00,86.0,79.0,29.94,SE,135,11.0,13.0,79,0.00,,,0.00,TxWx,2013-07-19 19:48:00,
2013-07-19 14:49:00,85.0,78.0,29.94,ESE,112,10.0,12.0,79,0.00,,,0.00,TxWx,2013-07-19 19:49:00,
2013-07-19 14:50:00,86.0,79.0,29.94,ESE,112,13.0,13.0,79,0.00,,,0.00,TxWx,2013-07-19 19:50:00,
2013-07-19 14:52:00,86.0,79.0,29.94,East,90,11.0,11.0,79,0.00,,,0.00,TxWx,2013-07-19 19:52:00,
2013-07-19 14:54:00,85.0,78.0,29.94,SE,135,12.0,14.0,79,0.00,,,0.00,TxWx,2013-07-19 19:54:00,
2013-07-19 14:55:00,86.0,78.0,29.94,SE,135,14.0,14.0,79,0.00,,,0.00,TxWx,2013-07-19 19:55:00,
2013-07-19 14:57:00,86.0,78.0,29.94,ESE,112,14.0,15.0,79,0.00,,,0.00,TxWx,2013-07-19 19:57:00,
2013-07-19 14:59:00,86.0,78.0,29.93,SE,135,14.0,14.0,79,0.00,,,0.00,TxWx,2013-07-19 19:59:00,
2013-07-19 15:00:00,85.0,77.0,29.93,ESE,112,16.0,16.0,78,0.00,,,0.00,TxWx,2013-07-19 20:00:00,
2013-07-19 15:03:00,86.0,78.0,29.93,ESE,112,11.0,12.0,78,0.00,,,0.00,TxWx,2013-07-19 20:03:00,
2013-07-19 15:04:00,86.0,78.0,29.93,SSE,157,9.0,10.0,78,0.00,,,0.00,TxWx,2013-07-19 20:04:00,
2013-07-19 15:05:00,86.0,78.0,29.93,ESE,112,11.0,13.0,78,0.00,,,0.00,TxWx,2013-07-19 20:05:00,
2013-07-19 15:08:00,86.0,78.0,29.93,ESE,112,15.0,16.0,79,0.00,,,0.00,TxWx,2013-07-19 20:08:00,
2013-07-19 15:09:00,86.0,78.0,29.93,ESE,112,7.0,7.0,78,0.00,,,0.00,TxWx,2013-07-19 20:09:00,
2013-07-19 15:10:00,86.0,78.0,29.93,SE,135,11.0,13.0,79,0.00,,,0.00,TxWx,2013-07-19 20:10:00,
2013-07-19 15:11:00,86.0,78.0,29.93,ESE,112,16.0,16.0,79,0.00,,,0.00,TxWx,2013-07-19 20:11:00,
2013-07-19 15:14:00,86.0,78.0,29.93,SE,135,13.0,14.0,78,0.00,,,0.00,TxWx,2013-07-19 20:14:00,
2013-07-19 15:15:00,85.0,77.0,29.93,SE,135,14.0,15.0,78,0.00,,,0.00,TxWx,2013-07-19 20:15:00,
2013-07-19 15:16:00,86.0,79.0,29.93,ESE,112,10.0,10.0,79,0.00,,,0.00,TxWx,2013-07-19 20:16:00,
2013-07-19 15:17:00,86.0,78.0,29.93,ESE,112,10.0,10.0,79,0.00,,,0.00,TxWx,2013-07-19 20:17:00,
2013-07-19 15:18:00,85.0,78.0,29.93,SE,135,13.0,13.0,79,0.00,,,0.00,TxWx,2013-07-19 20:18:00,
2013-07-19 15:21:00,86.0,78.0,29.93,ESE,112,14.0,14.0,79,0.00,,,0.00,TxWx,2013-07-19 20:21:00,
2013-07-19 15:22:00,86.0,78.0,29.94,ESE,112,12.0,13.0,79,0.00,,,0.00,TxWx,2013-07-19 20:22:00,
2013-07-19 15:23:00,86.0,78.0,29.94,ESE,112,11.0,11.0,79,0.00,,,0.00,TxWx,2013-07-19 20:23:00,
2013-07-19 15:25:00,86.0,78.0,29.93,ESE,112,8.0,9.0,79,0.00,,,0.00,TxWx,2013-07-19 20:25:00,
2013-07-19 15:27:00,86.0,78.0,29.93,ESE,112,10.0,11.0,78,0.00,,,0.00,TxWx,2013-07-19 20:27:00,
2013-07-19 15:28:00,86.0,78.0,29.93,SE,135,8.0,11.0,78,0.00,,,0.00,TxWx,2013-07-19 20:28:00,
2013-07-19 15:30:00,86.0,78.0,29.93,ESE,112,13.0,14.0,78,0.00,,,0.00,TxWx,2013-07-19 20:30:00,
2013-07-19 15:31:00,86.0,78.0,29.93,ESE,112,10.0,10.0,78,0.00,,,0.00,TxWx,2013-07-19 20:31:00,
2013-07-19 15:32:00,86.0,78.0,29.93,SSE,157,7.0,8.0,78,0.00,,,0.00,TxWx,2013-07-19 20:32:00,
2013-07-19 15:35:00,86.0,78.0,29.93,SE,135,12.0,13.0,78,0.00,,,0.00,TxWx,2013-07-19 20:35:00,
2013-07-19 15:36:00,86.0,78.0,29.93,ESE,112,14.0,14.0,78,0.00,,,0.00,TxWx,2013-07-19 20:36:00,
2013-07-19 15:37:00,86.0,78.0,29.93,ESE,112,11.0,11.0,77,0.00,,,0.00,TxWx,2013-07-19 20:37:00,
2013-07-19 15:40:00,86.0,78.0,29.93,SE,135,12.0,12.0,78,0.00,,,0.00,TxWx,2013-07-19 20:40:00,
2013-07-19 15:41:00,86.0,78.0,29.93,ESE,112,11.0,13.0,78,0.00,,,0.00,TxWx,2013-07-19 20:41:00,
2013-07-19 15:42:00,86.0,78.0,29.93,SE,135,10.0,12.0,78,0.00,,,0.00,TxWx,2013-07-19 20:42:00,
2013-07-19 15:43:00,86.0,78.0,29.93,ESE,112,9.0,9.0,78,0.00,,,0.00,TxWx,2013-07-19 20:43:00,
2013-07-19 15:45:00,86.0,78.0,29.93,SE,135,16.0,16.0,78,0.00,,,0.00,TxWx,2013-07-19 20:45:00,
2013-07-19 15:46:00,86.0,78.0,29.93,SE,135,15.0,15.0,77,0.00,,,0.00,TxWx,2013-07-19 20:46:00,
2013-07-19 15:49:00,85.0,77.0,29.93,SE,135,12.0,13.0,77,0.00,,,0.00,TxWx,2013-07-19 20:49:00,
2013-07-19 15:50:00,86.0,78.0,29.93,SE,135,12.0,12.0,78,0.00,,,0.00,TxWx,2013-07-19 20:50:00,
2013-07-19 15:51:00,86.0,78.0,29.93,SE,135,9.0,10.0,78,0.00,,,0.00,TxWx,2013-07-19 20:51:00,
2013-07-19 15:54:00,86.0,78.0,29.93,SE,135,14.0,14.0,77,0.00,,,0.00,TxWx,2013-07-19 20:54:00,
2013-07-19 15:56:00,86.0,78.0,29.93,SE,135,11.0,11.0,78,0.00,,,0.00,TxWx,2013-07-19 20:56:00,
2013-07-19 15:57:00,86.0,78.0,29.93,East,90,14.0,15.0,78,0.00,,,0.00,TxWx,2013-07-19 20:57:00,
2013-07-19 15:58:00,86.0,78.0,29.93,ESE,112,12.0,13.0,79,0.00,,,0.00,TxWx,2013-07-19 20:58:00,
2013-07-19 15:59:00,86.0,78.0,29.93,East,90,5.0,5.0,79,0.00,,,0.00,TxWx,2013-07-19 20:59:00,
2013-07-19 16:02:00,86.0,78.0,29.93,SE,135,14.0,18.0,77,0.00,,,0.00,TxWx,2013-07-19 21:02:00,
2013-07-19 16:03:00,86.0,78.0,29.93,SE,135,11.0,13.0,77,0.00,,,0.00,TxWx,2013-07-19 21:03:00,
2013-07-19 16:04:00,86.0,78.0,29.93,ESE,112,9.0,11.0,77,0.00,,,0.00,TxWx,2013-07-19 21:04:00,
2013-07-19 16:07:00,86.0,78.0,29.93,SE,135,12.0,13.0,77,0.00,,,0.00,TxWx,2013-07-19 21:07:00,
2013-07-19 16:08:00,86.0,78.0,29.93,SSE,157,11.0,13.0,77,0.00,,,0.00,TxWx,2013-07-19 21:08:00,
2013-07-19 16:09:00,86.0,78.0,29.93,SE,135,13.0,16.0,77,0.00,,,0.00,TxWx,2013-07-19 21:09:00,
2013-07-19 16:10:00,86.0,78.0,29.92,East,90,11.0,13.0,77,0.00,,,0.00,TxWx,2013-07-19 21:10:00,
2013-07-19 16:12:00,86.0,77.0,29.92,SE,135,13.0,16.0,75,0.00,,,0.00,TxWx,2013-07-19 21:12:00,
2013-07-19 16:14:00,86.0,77.0,29.92,SE,135,9.0,10.0,75,0.00,,,0.00,TxWx,2013-07-19 21:14:00,
2013-07-19 16:16:00,86.0,77.0,29.92,SE,135,9.0,14.0,75,0.00,,,0.00,TxWx,2013-07-19 21:16:00,
2013-07-19 16:17:00,86.0,78.0,29.92,ESE,112,10.0,12.0,76,0.00,,,0.00,TxWx,2013-07-19 21:17:00,
2013-07-19 16:19:00,86.0,78.0,29.92,East,90,11.0,11.0,77,0.00,,,0.00,TxWx,2013-07-19 21:19:00,
2013-07-19 16:20:00,86.0,78.0,29.92,East,90,11.0,11.0,77,0.00,,,0.00,TxWx,2013-07-19 21:20:00,
2013-07-19 16:22:00,86.0,78.0,29.92,SE,135,10.0,11.0,77,0.00,,,0.00,TxWx,2013-07-19 21:22:00,
2013-07-19 16:23:00,86.0,78.0,29.92,ESE,112,12.0,13.0,77,0.00,,,0.00,TxWx,2013-07-19 21:23:00,
2013-07-19 16:25:00,86.0,78.0,29.92,ESE,112,16.0,17.0,77,0.00,,,0.00,TxWx,2013-07-19 21:25:00,
2013-07-19 16:28:00,86.0,78.0,29.91,ESE,112,12.0,13.0,77,0.00,,,0.00,TxWx,2013-07-19 21:28:00,
2013-07-19 16:29:00,85.0,77.0,29.91,ESE,112,13.0,15.0,76,0.00,,,0.00,TxWx,2013-07-19 21:29:00,
2013-07-19 16:30:00,86.0,77.0,29.91,SE,135,13.0,14.0,76,0.00,,,0.00,TxWx,2013-07-19 21:30:00,
2013-07-19 16:31:00,86.0,78.0,29.91,SE,135,8.0,8.0,77,0.00,,,0.00,TxWx,2013-07-19 21:31:00,
2013-07-19 16:33:00,86.0,78.0,29.91,SE,135,13.0,13.0,77,0.00,,,0.00,TxWx,2013-07-19 21:33:00,
2013-07-19 16:34:00,86.0,78.0,29.91,SE,135,11.0,11.0,78,0.00,,,0.00,TxWx,2013-07-19 21:34:00,
2013-07-19 16:35:00,86.0,78.0,29.91,SE,135,11.0,11.0,78,0.00,,,0.00,TxWx,2013-07-19 21:35:00,
2013-07-19 16:37:00,86.0,78.0,29.91,East,90,10.0,11.0,78,0.00,,,0.00,TxWx,2013-07-19 21:37:00,
2013-07-19 16:38:00,86.0,78.0,29.91,ESE,112,13.0,13.0,77,0.00,,,0.00,TxWx,2013-07-19 21:38:00,
2013-07-19 16:39:00,86.0,78.0,29.91,SE,135,8.0,10.0,77,0.00,,,0.00,TxWx,2013-07-19 21:39:00,
2013-07-19 16:41:00,86.0,78.0,29.91,SE,135,8.0,8.0,76,0.00,,,0.00,TxWx,2013-07-19 21:41:00,
2013-07-19 16:44:00,86.0,78.0,29.91,ESE,112,13.0,16.0,77,0.00,,,0.00,TxWx,2013-07-19 21:44:00,
2013-07-19 16:45:00,86.0,78.0,29.91,SE,135,9.0,11.0,77,0.00,,,0.00,TxWx,2013-07-19 21:45:00,
2013-07-19 16:46:00,86.0,78.0,29.91,ESE,112,15.0,15.0,77,0.00,,,0.00,TxWx,2013-07-19 21:46:00,
2013-07-19 16:47:00,86.0,78.0,29.91,ESE,112,15.0,16.0,77,0.00,,,0.00,TxWx,2013-07-19 21:47:00,
2013-07-19 16:51:00,86.0,78.0,29.91,East,90,16.0,16.0,77,0.00,,,0.00,TxWx,2013-07-19 21:51:00,
2013-07-19 16:52:00,86.0,78.0,29.91,ESE,112,9.0,10.0,77,0.00,,,0.00,TxWx,2013-07-19 21:52:00,
2013-07-19 16:55:00,86.0,78.0,29.91,East,90,11.0,11.0,77,0.00,,,0.00,TxWx,2013-07-19 21:55:00,
2013-07-19 16:56:00,86.0,78.0,29.91,ESE,112,10.0,11.0,76,0.00,,,0.00,TxWx,2013-07-19 21:56:00,
2013-07-19 16:57:00,86.0,77.0,29.91,SE,135,13.0,13.0,76,0.00,,,0.00,TxWx,2013-07-19 21:57:00,
2013-07-19 17:00:00,86.0,78.0,29.91,SE,135,8.0,8.0,76,0.00,,,0.00,TxWx,2013-07-19 22:00:00,
2013-07-19 17:01:00,86.0,78.0,29.91,SE,135,8.0,9.0,76,0.00,,,0.00,TxWx,2013-07-19 22:01:00,
2013-07-19 17:02:00,86.0,78.0,29.91,ESE,112,11.0,11.0,76,0.00,,,0.00,TxWx,2013-07-19 22:02:00,
2013-07-19 17:03:00,86.0,78.0,29.90,SE,135,7.0,8.0,76,0.00,,,0.00,TxWx,2013-07-19 22:03:00,
2013-07-19 17:07:00,86.0,78.0,29.90,SE,135,11.0,11.0,77,0.00,,,0.00,TxWx,2013-07-19 22:07:00,
2013-07-19 17:08:00,86.0,78.0,29.90,SE,135,14.0,14.0,77,0.00,,,0.00,TxWx,2013-07-19 22:08:00,
2013-07-19 17:09:00,86.0,78.0,29.90,ESE,112,8.0,8.0,76,0.00,,,0.00,TxWx,2013-07-19 22:09:00,
2013-07-19 17:12:00,86.0,78.0,29.90,SE,135,11.0,11.0,76,0.00,,,0.00,TxWx,2013-07-19 22:12:00,
2013-07-19 17:14:00,86.0,78.0,29.90,SE,135,10.0,11.0,76,0.00,,,0.00,TxWx,2013-07-19 22:14:00,
2013-07-19 17:17:00,86.0,78.0,29.90,ESE,112,11.0,11.0,77,0.00,,,0.00,TxWx,2013-07-19 22:17:00,
2013-07-19 17:18:00,86.0,78.0,29.90,ESE,112,10.0,11.0,77,0.00,,,0.00,TxWx,2013-07-19 22:18:00,
2013-07-19 17:20:00,86.0,78.0,29.90,ESE,112,16.0,16.0,77,0.00,,,0.00,TxWx,2013-07-19 22:20:00,
2013-07-19 17:22:00,86.0,78.0,29.90,SE,135,11.0,12.0,77,0.00,,,0.00,TxWx,2013-07-19 22:22:00,
2013-07-19 17:25:00,86.0,78.0,29.90,East,90,6.0,9.0,77,0.00,,,0.00,TxWx,2013-07-19 22:25:00,
2013-07-19 17:27:00,86.0,78.0,29.89,SE,135,10.0,10.0,77,0.00,,,0.00,TxWx,2013-07-19 22:27:00,
2013-07-19 17:28:00,86.0,78.0,29.89,SE,135,8.0,10.0,77,0.00,,,0.00,TxWx,2013-07-19 22:28:00,
2013-07-19 17:30:00,86.0,78.0,29.90,ESE,112,14.0,15.0,77,0.00,,,0.00,TxWx,2013-07-19 22:30:00,
2013-07-19 17:31:00,86.0,78.0,29.90,ESE,112,14.0,14.0,77,0.00,,,0.00,TxWx,2013-07-19 22:31:00,
2013-07-19 17:32:00,86.0,78.0,29.89,ENE,67,8.0,13.0,78,0.00,,,0.00,TxWx,2013-07-19 22:32:00,
2013-07-19 17:33:00,85.0,77.0,29.90,ESE,112,15.0,15.0,77,0.00,,,0.00,TxWx,2013-07-19 22:33:00,
2013-07-19 17:37:00,86.0,78.0,29.89,SE,135,10.0,12.0,78,0.00,,,0.00,TxWx,2013-07-19 22:37:00,
2013-07-19 17:38:00,86.0,78.0,29.90,SE,135,8.0,8.0,78,0.00,,,0.00,TxWx,2013-07-19 22:38:00,
2013-07-19 17:39:00,86.0,78.0,29.89,ESE,112,8.0,10.0,78,0.00,,,0.00,TxWx,2013-07-19 22:39:00,
2013-07-19 17:42:00,86.0,78.0,29.89,ESE,112,11.0,11.0,79,0.00,,,0.00,TxWx,2013-07-19 22:42:00,
2013-07-19 17:43:00,86.0,78.0,29.89,SE,135,14.0,14.0,79,0.00,,,0.00,TxWx,2013-07-19 22:43:00,
2013-07-19 17:44:00,86.0,78.0,29.89,SE,135,8.0,10.0,78,0.00,,,0.00,TxWx,2013-07-19 22:44:00,
2013-07-19 17:46:00,86.0,78.0,29.89,ESE,112,8.0,8.0,78,0.00,,,0.00,TxWx,2013-07-19 22:46:00,
2013-07-19 17:47:00,86.0,78.0,29.89,SE,135,12.0,14.0,78,0.00,,,0.00,TxWx,2013-07-19 22:47:00,
2013-07-19 17:49:00,85.0,77.0,29.89,East,90,8.0,8.0,77,0.00,,,0.00,TxWx,2013-07-19 22:49:00,
2013-07-19 17:50:00,85.0,77.0,29.89,SE,135,14.0,18.0,78,0.00,,,0.00,TxWx,2013-07-19 22:50:00,
2013-07-19 17:51:00,86.0,78.0,29.89,ESE,112,10.0,10.0,78,0.00,,,0.00,TxWx,2013-07-19 22:51:00,
2013-07-19 17:53:00,86.0,78.0,29.89,SE,135,7.0,8.0,78,0.00,,,0.00,TxWx,2013-07-19 22:53:00,
2013-07-19 17:56:00,85.0,77.0,29.89,SE,135,9.0,9.0,78,0.00,,,0.00,TxWx,2013-07-19 22:56:00,
2013-07-19 17:57:00,85.0,77.0,29.89,SE,135,14.0,15.0,78,0.00,,,0.00,TxWx,2013-07-19 22:57:00,
2013-07-19 17:58:00,85.0,77.0,29.89,SE,135,11.0,11.0,77,0.00,,,0.00,TxWx,2013-07-19 22:58:00,
2013-07-19 17:59:00,85.0,77.0,29.89,ESE,112,13.0,14.0,77,0.00,,,0.00,TxWx,2013-07-19 22:59:00,
2013-07-19 18:01:00,86.0,78.0,29.89,ESE,112,13.0,13.0,78,0.00,,,0.00,TxWx,2013-07-19 23:01:00,
2013-07-19 18:02:00,86.0,78.0,29.89,SE,135,8.0,8.0,78,0.00,,,0.00,TxWx,2013-07-19 23:02:00,
2013-07-19 18:04:00,86.0,78.0,29.89,SE,135,11.0,11.0,78,0.00,,,0.00,TxWx,2013-07-19 23:04:00,
2013-07-19 18:07:00,86.0,78.0,29.89,SE,135,8.0,10.0,78,0.00,,,0.00,TxWx,2013-07-19 23:07:00,
2013-07-19 18:08:00,86.0,78.0,29.89,ESE,112,13.0,14.0,78,0.00,,,0.00,TxWx,2013-07-19 23:08:00,
2013-07-19 18:09:00,86.0,78.0,29.89,SE,135,8.0,10.0,78,0.00,,,0.00,TxWx,2013-07-19 23:09:00,
2013-07-19 18:12:00,86.0,78.0,29.88,East,90,10.0,10.0,78,0.00,,,0.00,TxWx,2013-07-19 23:12:00,
2013-07-19 18:13:00,86.0,78.0,29.89,SE,135,14.0,14.0,78,0.00,,,0.00,TxWx,2013-07-19 23:13:00,
2013-07-19 18:14:00,86.0,78.0,29.88,SE,135,15.0,15.0,78,0.00,,,0.00,TxWx,2013-07-19 23:14:00,
2013-07-19 18:19:00,86.0,78.0,29.89,SE,135,12.0,12.0,78,0.00,,,0.00,TxWx,2013-07-19 23:19:00,
2013-07-19 18:20:00,86.0,78.0,29.88,ESE,112,10.0,10.0,78,0.00,,,0.00,TxWx,2013-07-19 23:20:00,
2013-07-19 18:21:00,86.0,78.0,29.89,ESE,112,6.0,6.0,78,0.00,,,0.00,TxWx,2013-07-19 23:21:00,
2013-07-19 18:23:00,86.0,78.0,29.89,ESE,112,10.0,10.0,79,0.00,,,0.00,TxWx,2013-07-19 23:23:00,
2013-07-19 18:25:00,86.0,78.0,29.89,ESE,112,11.0,13.0,78,0.00,,,0.00,TxWx,2013-07-19 23:25:00,
2013-07-19 18:26:00,86.0,78.0,29.88,SE,135,13.0,16.0,78,0.00,,,0.00,TxWx,2013-07-19 23:26:00,
2013-07-19 18:28:00,86.0,78.0,29.89,ESE,112,10.0,12.0,78,0.00,,,0.00,TxWx,2013-07-19 23:28:00,
2013-07-19 18:29:00,87.0,79.0,29.89,SSE,157,10.0,16.0,78,0.00,,,0.00,TxWx,2013-07-19 23:29:00,
2013-07-19 18:31:00,88.0,80.0,29.89,SSE,157,13.0,13.0,78,0.00,,,0.00,TxWx,2013-07-19 23:31:00,
2013-07-19 18:32:00,87.0,79.0,29.89,SE,135,10.0,10.0,78,0.00,,,0.00,TxWx,2013-07-19 23:32:00,
2013-07-19 18:33:00,86.0,78.0,29.89,SE,135,12.0,12.0,78,0.00,,,0.00,TxWx,2013-07-19 23:33:00,
2013-07-19 18:36:00,85.0,77.0,29.89,SE,135,13.0,13.0,78,0.00,,,0.00,TxWx,2013-07-19 23:36:00,
2013-07-19 18:37:00,85.0,77.0,29.89,SE,135,11.0,11.0,78,0.00,,,0.00,TxWx,2013-07-19 23:37:00,
2013-07-19 18:39:00,85.0,77.0,29.89,SE,135,14.0,14.0,78,0.00,,,0.00,TxWx,2013-07-19 23:39:00,
2013-07-19 18:42:00,85.0,77.0,29.89,ESE,112,11.0,11.0,77,0.00,,,0.00,TxWx,2013-07-19 23:42:00,
2013-07-19 18:43:00,85.0,77.0,29.89,SE,135,13.0,13.0,77,0.00,,,0.00,TxWx,2013-07-19 23:43:00,
2013-07-19 18:45:00,85.0,77.0,29.89,SE,135,9.0,10.0,78,0.00,,,0.00,TxWx,2013-07-19 23:45:00,
2013-07-19 18:48:00,85.0,77.0,29.89,SE,135,11.0,13.0,78,0.00,,,0.00,TxWx,2013-07-19 23:48:00,
2013-07-19 18:49:00,86.0,78.0,29.89,SE,135,13.0,13.0,79,0.00,,,0.00,TxWx,2013-07-19 23:49:00,
2013-07-19 18:50:00,85.0,78.0,29.89,SE,135,14.0,14.0,79,0.00,,,0.00,TxWx,2013-07-19 23:50:00,
2013-07-19 18:51:00,85.0,78.0,29.89,ESE,112,11.0,13.0,79,0.00,,,0.00,TxWx,2013-07-19 23:51:00,
2013-07-19 18:54:00,85.0,78.0,29.89,SE,135,13.0,13.0,79,0.00,,,0.00,TxWx,2013-07-19 23:54:00,
2013-07-19 18:56:00,85.0,78.0,29.89,ESE,112,11.0,12.0,80,0.00,,,0.00,TxWx,2013-07-19 23:56:00,
2013-07-19 18:57:00,85.0,78.0,29.89,SE,135,15.0,15.0,80,0.00,,,0.00,TxWx,2013-07-19 23:57:00,
2013-07-19 18:59:00,85.0,78.0,29.89,SE,135,16.0,16.0,80,0.00,,,0.00,TxWx,2013-07-19 23:59:00,
2013-07-19 19:00:00,85.0,78.0,29.89,SE,135,11.0,13.0,80,0.00,,,0.00,TxWx,2013-07-20 00:00:00,
2013-07-19 19:01:00,85.0,78.0,29.89,SE,135,9.0,9.0,80,0.00,,,0.00,TxWx,2013-07-20 00:01:00,
2013-07-19 19:03:00,85.0,78.0,29.89,ESE,112,13.0,13.0,80,0.00,,,0.00,TxWx,2013-07-20 00:03:00,
2013-07-19 19:05:00,85.0,78.0,29.89,ESE,112,11.0,13.0,80,0.00,,,0.00,TxWx,2013-07-20 00:05:00,
2013-07-19 19:06:00,85.0,78.0,29.89,SE,135,15.0,16.0,79,0.00,,,0.00,TxWx,2013-07-20 00:06:00,
2013-07-19 19:08:00,85.0,78.0,29.88,ESE,112,10.0,10.0,79,0.00,,,0.00,TxWx,2013-07-20 00:08:00,
2013-07-19 19:09:00,85.0,78.0,29.89,SE,135,6.0,8.0,79,0.00,,,0.00,TxWx,2013-07-20 00:09:00,
2013-07-19 19:10:00,85.0,78.0,29.89,SSE,157,8.0,10.0,79,0.00,,,0.00,TxWx,2013-07-20 00:10:00,
2013-07-19 19:12:00,85.0,78.0,29.89,SE,135,11.0,11.0,80,0.00,,,0.00,TxWx,2013-07-20 00:12:00,
2013-07-19 19:14:00,85.0,77.0,29.88,South,180,9.0,10.0,78,0.00,,,0.00,TxWx,2013-07-20 00:14:00,
2013-07-19 19:15:00,85.0,77.0,29.88,SE,135,10.0,11.0,78,0.00,,,0.00,TxWx,2013-07-20 00:15:00,
2013-07-19 19:17:00,85.0,77.0,29.88,SE,135,13.0,13.0,77,0.00,,,0.00,TxWx,2013-07-20 00:17:00,
2013-07-19 19:18:00,85.0,77.0,29.88,ESE,112,10.0,11.0,77,0.00,,,0.00,TxWx,2013-07-20 00:18:00,
2013-07-19 19:19:00,85.0,77.0,29.88,SE,135,10.0,10.0,78,0.00,,,0.00,TxWx,2013-07-20 00:19:00,
2013-07-19 19:20:00,85.0,77.0,29.88,SSE,157,13.0,13.0,78,0.00,,,0.00,TxWx,2013-07-20 00:20:00,
2013-07-19 19:23:00,85.0,77.0,29.88,SE,135,9.0,10.0,77,0.00,,,0.00,TxWx,2013-07-20 00:23:00,
2013-07-19 19:24:00,85.0,77.0,29.88,SE,135,10.0,10.0,77,0.00,,,0.00,TxWx,2013-07-20 00:24:00,
2013-07-19 19:25:00,85.0,77.0,29.88,SE,135,15.0,15.0,77,0.00,,,0.00,TxWx,2013-07-20 00:25:00,
2013-07-19 19:26:00,85.0,77.0,29.89,SE,135,8.0,8.0,77,0.00,,,0.00,TxWx,2013-07-20 00:26:00,
2013-07-19 19:27:00,85.0,77.0,29.88,SE,135,8.0,11.0,77,0.00,,,0.00,TxWx,2013-07-20 00:27:00,
2013-07-19 19:29:00,85.0,76.0,29.88,SSW,202,11.0,11.0,76,0.00,,,0.00,TxWx,2013-07-20 00:29:00,
2013-07-19 19:31:00,85.0,76.0,29.89,SE,135,9.0,9.0,75,0.00,,,0.00,TxWx,2013-07-20 00:31:00,
2013-07-19 19:32:00,85.0,76.0,29.88,SE,135,11.0,11.0,76,0.00,,,0.00,TxWx,2013-07-20 00:32:00,
2013-07-19 19:33:00,85.0,77.0,29.88,SE,135,11.0,14.0,77,0.00,,,0.00,TxWx,2013-07-20 00:33:00,
2013-07-19 19:35:00,85.0,77.0,29.88,SE,135,11.0,12.0,76,0.00,,,0.00,TxWx,2013-07-20 00:35:00,
2013-07-19 19:36:00,85.0,77.0,29.88,SE,135,11.0,13.0,76,0.00,,,0.00,TxWx,2013-07-20 00:36:00,
2013-07-19 19:37:00,85.0,77.0,29.88,SE,135,5.0,5.0,76,0.00,,,0.00,TxWx,2013-07-20 00:37:00,
2013-07-19 19:38:00,85.0,77.0,29.88,ESE,112,14.0,14.0,76,0.00,,,0.00,TxWx,2013-07-20 00:38:00,
2013-07-19 19:41:00,85.0,77.0,29.89,SE,135,14.0,14.0,76,0.00,,,0.00,TxWx,2013-07-20 00:41:00,
2013-07-19 19:43:00,85.0,77.0,29.89,SE,135,6.0,6.0,76,0.00,,,0.00,TxWx,2013-07-20 00:43:00,
2013-07-19 19:47:00,85.0,76.0,29.89,SE,135,7.0,7.0,75,0.00,,,0.00,TxWx,2013-07-20 00:47:00,
2013-07-19 19:48:00,85.0,76.0,29.89,SSE,157,6.0,8.0,76,0.00,,,0.00,TxWx,2013-07-20 00:48:00,
2013-07-19 19:49:00,85.0,76.0,29.89,SE,135,7.0,9.0,76,0.00,,,0.00,TxWx,2013-07-20 00:49:00,
2013-07-19 19:50:00,85.0,77.0,29.89,South,180,7.0,8.0,76,0.00,,,0.00,TxWx,2013-07-20 00:50:00,
2013-07-19 19:53:00,85.0,77.0,29.89,SSE,157,7.0,9.0,78,0.00,,,0.00,TxWx,2013-07-20 00:53:00,
2013-07-19 19:55:00,85.0,77.0,29.89,SSE,157,8.0,9.0,78,0.00,,,0.00,TxWx,2013-07-20 00:55:00,
2013-07-19 19:56:00,85.0,77.0,29.89,South,180,7.0,11.0,78,0.00,,,0.00,TxWx,2013-07-20 00:56:00,
2013-07-19 19:58:00,85.0,78.0,29.89,SE,135,6.0,7.0,79,0.00,,,0.00,TxWx,2013-07-20 00:58:00,
2013-07-19 19:59:00,85.0,78.0,29.89,SE,135,15.0,15.0,79,0.00,,,0.00,TxWx,2013-07-20 00:59:00,
2013-07-19 20:00:00,85.0,78.0,29.89,SE,135,8.0,8.0,79,0.00,,,0.00,TxWx,2013-07-20 01:00:00,
2013-07-19 20:02:00,84.0,77.0,29.89,SSE,157,8.0,8.0,79,0.00,,,0.00,TxWx,2013-07-20 01:02:00,
2013-07-19 20:04:00,84.0,77.0,29.89,SE,135,7.0,8.0,79,0.00,,,0.00,TxWx,2013-07-20 01:04:00,
2013-07-19 20:05:00,85.0,78.0,29.89,SSE,157,7.0,7.0,80,0.00,,,0.00,TxWx,2013-07-20 01:05:00,
2013-07-19 20:07:00,84.0,77.0,29.90,SSE,157,11.0,11.0,80,0.00,,,0.00,TxWx,2013-07-20 01:07:00,
2013-07-19 20:09:00,84.0,77.0,29.89,SSE,157,5.0,5.0,81,0.00,,,0.00,TxWx,2013-07-20 01:09:00,
2013-07-19 20:10:00,84.0,77.0,29.89,SE,135,12.0,13.0,80,0.00,,,0.00,TxWx,2013-07-20 01:10:00,
2013-07-19 20:13:00,84.0,77.0,29.89,SE,135,10.0,13.0,80,0.00,,,0.00,TxWx,2013-07-20 01:13:00,
2013-07-19 20:14:00,84.0,77.0,29.89,ESE,112,7.0,8.0,81,0.00,,,0.00,TxWx,2013-07-20 01:14:00,
2013-07-19 20:16:00,84.0,77.0,29.89,SSE,157,10.0,10.0,81,0.00,,,0.00,TxWx,2013-07-20 01:16:00,
2013-07-19 20:19:00,84.0,77.0,29.89,SE,135,8.0,10.0,81,0.00,,,0.00,TxWx,2013-07-20 01:19:00,
2013-07-19 20:22:00,84.0,77.0,29.89,East,90,4.0,5.0,81,0.00,,,0.00,TxWx,2013-07-20 01:22:00,
2013-07-19 20:24:00,84.0,77.0,29.89,SSW,202,10.0,10.0,81,0.00,,,0.00,TxWx,2013-07-20 01:24:00,
2013-07-19 20:25:00,84.0,77.0,29.89,ESE,112,10.0,10.0,81,0.00,,,0.00,TxWx,2013-07-20 01:25:00,
2013-07-19 20:28:00,84.0,77.0,29.89,ESE,112,5.0,6.0,80,0.00,,,0.00,TxWx,2013-07-20 01:28:00,
2013-07-19 20:30:00,84.0,77.0,29.89,SSE,157,8.0,10.0,80,0.00,,,0.00,TxWx,2013-07-20 01:30:00,
2013-07-19 20:31:00,84.0,77.0,29.89,SE,135,9.0,10.0,80,0.00,,,0.00,TxWx,2013-07-20 01:31:00,
2013-07-19 20:32:00,84.0,77.0,29.89,SE,135,8.0,10.0,80,0.00,,,0.00,TxWx,2013-07-20 01:32:00,
2013-07-19 20:33:00,84.0,77.0,29.89,SSE,157,7.0,7.0,80,0.00,,,0.00,TxWx,2013-07-20 01:33:00,
2013-07-19 20:36:00,84.0,77.0,29.89,SE,135,6.0,7.0,80,0.00,,,0.00,TxWx,2013-07-20 01:36:00,
2013-07-19 20:39:00,84.0,77.0,29.89,SSE,157,10.0,10.0,80,0.00,,,0.00,TxWx,2013-07-20 01:39:00,
2013-07-19 20:42:00,84.0,78.0,29.89,SSE,157,8.0,8.0,81,0.00,,,0.00,TxWx,2013-07-20 01:42:00,
2013-07-19 20:44:00,84.0,78.0,29.89,South,180,11.0,15.0,81,0.00,,,0.00,TxWx,2013-07-20 01:44:00,
2013-07-19 20:45:00,84.0,78.0,29.90,SSE,157,5.0,5.0,81,0.00,,,0.00,TxWx,2013-07-20 01:45:00,
2013-07-19 20:47:00,84.0,78.0,29.90,SSE,157,5.0,5.0,81,0.00,,,0.00,TxWx,2013-07-20 01:47:00,
2013-07-19 20:51:00,84.0,78.0,29.90,SSE,157,7.0,7.0,81,0.00,,,0.00,TxWx,2013-07-20 01:51:00,
2013-07-19 20:52:00,84.0,77.0,29.90,SSE,157,8.0,8.0,81,0.00,,,0.00,TxWx,2013-07-20 01:52:00,
2013-07-19 20:53:00,84.0,77.0,29.90,SE,135,12.0,13.0,81,0.00,,,0.00,TxWx,2013-07-20 01:53:00,
2013-07-19 20:57:00,84.0,77.0,29.90,SE,135,7.0,10.0,80,0.00,,,0.00,TxWx,2013-07-20 01:57:00,
2013-07-19 20:58:00,84.0,77.0,29.90,South,180,10.0,11.0,80,0.00,,,0.00,TxWx,2013-07-20 01:58:00,
2013-07-19 21:00:00,84.0,77.0,29.90,South,180,7.0,11.0,81,0.00,,,0.00,TxWx,2013-07-20 02:00:00,
2013-07-19 21:03:00,84.0,77.0,29.90,South,180,10.0,10.0,81,0.00,,,0.00,TxWx,2013-07-20 02:03:00,
2013-07-19 21:04:00,84.0,78.0,29.90,SSE,157,9.0,12.0,81,0.00,,,0.00,TxWx,2013-07-20 02:04:00,
2013-07-19 21:05:00,84.0,78.0,29.90,SSW,202,3.0,3.0,81,0.00,,,0.00,TxWx,2013-07-20 02:05:00,
2013-07-19 21:09:00,84.0,78.0,29.90,SE,135,8.0,8.0,81,0.00,,,0.00,TxWx,2013-07-20 02:09:00,
2013-07-19 21:10:00,84.0,78.0,29.90,South,180,8.0,10.0,81,0.00,,,0.00,TxWx,2013-07-20 02:10:00,
2013-07-19 21:11:00,84.0,78.0,29.90,ESE,112,5.0,6.0,82,0.00,,,0.00,TxWx,2013-07-20 02:11:00,
2013-07-19 21:15:00,84.0,78.0,29.91,SSE,157,8.0,8.0,82,0.00,,,0.00,TxWx,2013-07-20 02:15:00,
2013-07-19 21:16:00,84.0,78.0,29.91,SSW,202,5.0,5.0,82,0.00,,,0.00,TxWx,2013-07-20 02:16:00,
2013-07-19 21:20:00,84.0,78.0,29.91,SE,135,5.0,6.0,82,0.00,,,0.00,TxWx,2013-07-20 02:20:00,
2013-07-19 21:21:00,84.0,78.0,29.91,SSE,157,6.0,6.0,82,0.00,,,0.00,TxWx,2013-07-20 02:21:00,
2013-07-19 21:24:00,84.0,78.0,29.91,SSE,157,8.0,9.0,82,0.00,,,0.00,TxWx,2013-07-20 02:24:00,
2013-07-19 21:25:00,84.0,78.0,29.91,SE,135,11.0,12.0,82,0.00,,,0.00,TxWx,2013-07-20 02:25:00,
2013-07-19 21:26:00,84.0,78.0,29.91,SE,135,11.0,11.0,82,0.00,,,0.00,TxWx,2013-07-20 02:26:00,
2013-07-19 21:27:00,84.0,78.0,29.91,ESE,112,11.0,11.0,82,0.00,,,0.00,TxWx,2013-07-20 02:27:00,
2013-07-19 21:29:00,84.0,78.0,29.91,SE,135,6.0,6.0,82,0.00,,,0.00,TxWx,2013-07-20 02:29:00,
2013-07-19 21:30:00,84.0,78.0,29.92,SSE,157,9.0,10.0,82,0.00,,,0.00,TxWx,2013-07-20 02:30:00,
2013-07-19 21:31:00,84.0,78.0,29.92,SE,135,7.0,7.0,82,0.00,,,0.00,TxWx,2013-07-20 02:31:00,
2013-07-19 21:32:00,84.0,78.0,29.92,SE,135,6.0,6.0,82,0.00,,,0.00,TxWx,2013-07-20 02:32:00,
2013-07-19 21:33:00,84.0,78.0,29.92,SSE,157,10.0,10.0,82,0.00,,,0.00,TxWx,2013-07-20 02:33:00,
2013-07-19 21:35:00,84.0,78.0,29.92,ESE,112,8.0,9.0,82,0.00,,,0.00,TxWx,2013-07-20 02:35:00,
2013-07-19 21:36:00,84.0,78.0,29.92,SSE,157,9.0,9.0,82,0.00,,,0.00,TxWx,2013-07-20 02:36:00,
2013-07-19 21:37:00,84.0,78.0,29.92,SE,135,8.0,10.0,82,0.00,,,0.00,TxWx,2013-07-20 02:37:00,
2013-07-19 21:38:00,84.0,78.0,29.92,SE,135,9.0,10.0,82,0.00,,,0.00,TxWx,2013-07-20 02:38:00,
2013-07-19 21:40:00,84.0,78.0,29.92,SE,135,13.0,14.0,82,0.00,,,0.00,TxWx,2013-07-20 02:40:00,
2013-07-19 21:43:00,84.0,78.0,29.92,SE,135,5.0,5.0,82,0.00,,,0.00,TxWx,2013-07-20 02:43:00,
2013-07-19 21:45:00,84.0,78.0,29.92,SSE,157,8.0,9.0,82,0.00,,,0.00,TxWx,2013-07-20 02:45:00,
2013-07-19 21:46:00,84.0,78.0,29.92,SE,135,4.0,4.0,82,0.00,,,0.00,TxWx,2013-07-20 02:46:00,
2013-07-19 21:49:00,84.0,78.0,29.92,South,180,6.0,7.0,82,0.00,,,0.00,TxWx,2013-07-20 02:49:00,
2013-07-19 21:51:00,83.0,77.0,29.92,SE,135,8.0,8.0,82,0.00,,,0.00,TxWx,2013-07-20 02:51:00,
2013-07-19 21:55:00,84.0,78.0,29.92,SE,135,6.0,6.0,82,0.00,,,0.00,TxWx,2013-07-20 02:55:00,
2013-07-19 21:56:00,84.0,78.0,29.92,SE,135,8.0,8.0,82,0.00,,,0.00,TxWx,2013-07-20 02:56:00,
2013-07-19 21:57:00,84.0,78.0,29.92,SE,135,5.0,6.0,82,0.00,,,0.00,TxWx,2013-07-20 02:57:00,
2013-07-19 21:58:00,84.0,78.0,29.92,SSE,157,9.0,10.0,82,0.00,,,0.00,TxWx,2013-07-20 02:58:00,
2013-07-19 22:00:00,84.0,78.0,29.92,SSE,157,3.0,5.0,82,0.00,,,0.00,TxWx,2013-07-20 03:00:00,
2013-07-19 22:01:00,84.0,78.0,29.92,South,180,8.0,8.0,82,0.00,,,0.00,TxWx,2013-07-20 03:01:00,
2013-07-19 22:02:00,84.0,78.0,29.92,South,180,6.0,7.0,82,0.00,,,0.00,TxWx,2013-07-20 03:02:00,
2013-07-19 22:04:00,83.0,77.0,29.92,SE,135,7.0,7.0,82,0.00,,,0.00,TxWx,2013-07-20 03:04:00,
2013-07-19 22:05:00,83.0,77.0,29.92,SE,135,8.0,8.0,82,0.00,,,0.00,TxWx,2013-07-20 03:05:00,
2013-07-19 22:07:00,83.0,77.0,29.92,SE,135,10.0,10.0,82,0.00,,,0.00,TxWx,2013-07-20 03:07:00,
2013-07-19 22:09:00,83.0,77.0,29.92,South,180,9.0,10.0,82,0.00,,,0.00,TxWx,2013-07-20 03:09:00,
2013-07-19 22:10:00,83.0,77.0,29.92,South,180,10.0,10.0,82,0.00,,,0.00,TxWx,2013-07-20 03:10:00,
2013-07-19 22:14:00,83.0,77.0,29.92,SE,135,8.0,8.0,82,0.00,,,0.00,TxWx,2013-07-20 03:14:00,
2013-07-19 22:16:00,83.0,77.0,29.92,SE,135,6.0,6.0,83,0.00,,,0.00,TxWx,2013-07-20 03:16:00,
2013-07-19 22:18:00,83.0,77.0,29.93,SSE,157,6.0,7.0,83,0.00,,,0.00,TxWx,2013-07-20 03:18:00,
2013-07-19 22:20:00,83.0,77.0,29.93,SSE,157,6.0,7.0,83,0.00,,,0.00,TxWx,2013-07-20 03:20:00,
2013-07-19 22:21:00,83.0,77.0,29.93,SE,135,5.0,6.0,83,0.00,,,0.00,TxWx,2013-07-20 03:21:00,
2013-07-19 22:22:00,83.0,77.0,29.93,SSE,157,8.0,8.0,83,0.00,,,0.00,TxWx,2013-07-20 03:22:00,
2013-07-19 22:25:00,83.0,77.0,29.93,SSE,157,12.0,12.0,83,0.00,,,0.00,TxWx,2013-07-20 03:25:00,
2013-07-19 22:26:00,83.0,77.0,29.93,SSE,157,8.0,8.0,83,0.00,,,0.00,TxWx,2013-07-20 03:26:00,
2013-07-19 22:27:00,83.0,77.0,29.93,South,180,10.0,11.0,83,0.00,,,0.00,TxWx,2013-07-20 03:27:00,
2013-07-19 22:28:00,83.0,77.0,29.93,South,180,4.0,5.0,83,0.00,,,0.00,TxWx,2013-07-20 03:28:00,
2013-07-19 22:31:00,83.0,77.0,29.93,SSE,157,6.0,6.0,83,0.00,,,0.00,TxWx,2013-07-20 03:31:00,
2013-07-19 22:32:00,83.0,77.0,29.93,SSE,157,7.0,7.0,83,0.00,,,0.00,TxWx,2013-07-20 03:32:00,
2013-07-19 22:33:00,83.0,77.0,29.93,SSE,157,8.0,9.0,83,0.00,,,0.00,TxWx,2013-07-20 03:33:00,
2013-07-19 22:36:00,83.0,77.0,29.93,SE,135,10.0,10.0,83,0.00,,,0.00,TxWx,2013-07-20 03:36:00,
2013-07-19 22:37:00,83.0,77.0,29.93,SSE,157,5.0,6.0,83,0.00,,,0.00,TxWx,2013-07-20 03:37:00,
2013-07-19 22:38:00,83.0,77.0,29.93,SSE,157,4.0,4.0,83,0.00,,,0.00,TxWx,2013-07-20 03:38:00,
2013-07-19 22:39:00,83.0,77.0,29.93,SE,135,6.0,6.0,83,0.00,,,0.00,TxWx,2013-07-20 03:39:00,
2013-07-19 22:41:00,83.0,77.0,29.93,South,180,7.0,7.0,83,0.00,,,0.00,TxWx,2013-07-20 03:41:00,
2013-07-19 22:42:00,83.0,77.0,29.93,SSE,157,8.0,8.0,83,0.00,,,0.00,TxWx,2013-07-20 03:42:00,
2013-07-19 22:44:00,83.0,77.0,29.93,SSE,157,6.0,8.0,83,0.00,,,0.00,TxWx,2013-07-20 03:44:00,
2013-07-19 22:45:00,83.0,77.0,29.93,SE,135,3.0,5.0,84,0.00,,,0.00,TxWx,2013-07-20 03:45:00,
2013-07-19 22:46:00,83.0,77.0,29.93,SSW,202,5.0,5.0,84,0.00,,,0.00,TxWx,2013-07-20 03:46:00,
2013-07-19 22:47:00,83.0,77.0,29.93,ESE,112,7.0,7.0,84,0.00,,,0.00,TxWx,2013-07-20 03:47:00,
2013-07-19 22:49:00,83.0,77.0,29.93,SSE,157,8.0,8.0,84,0.00,,,0.00,TxWx,2013-07-20 03:49:00,
2013-07-19 22:51:00,83.0,77.0,29.93,SE,135,7.0,7.0,83,0.00,,,0.00,TxWx,2013-07-20 03:51:00,
2013-07-19 22:52:00,83.0,77.0,29.93,SSE,157,8.0,8.0,83,0.00,,,0.00,TxWx,2013-07-20 03:52:00,
2013-07-19 22:55:00,83.0,77.0,29.93,SE,135,4.0,5.0,83,0.00,,,0.00,TxWx,2013-07-20 03:55:00,
2013-07-19 22:56:00,83.0,77.0,29.93,SSE,157,9.0,9.0,83,0.00,,,0.00,TxWx,2013-07-20 03:56:00,
2013-07-19 22:59:00,83.0,77.0,29.93,South,180,8.0,8.0,83,0.00,,,0.00,TxWx,2013-07-20 03:59:00,
2013-07-19 23:01:00,83.0,77.0,29.93,SSE,157,7.0,7.0,83,0.00,,,0.00,TxWx,2013-07-20 04:01:00,
2013-07-19 23:02:00,83.0,77.0,29.93,South,180,10.0,10.0,83,0.00,,,0.00,TxWx,2013-07-20 04:02:00,
2013-07-19 23:03:00,83.0,77.0,29.93,ESE,112,4.0,4.0,83,0.00,,,0.00,TxWx,2013-07-20 04:03:00,
2013-07-19 23:06:00,83.0,77.0,29.93,SE,135,8.0,8.0,83,0.00,,,0.00,TxWx,2013-07-20 04:06:00,
2013-07-19 23:07:00,83.0,77.0,29.93,SSE,157,6.0,7.0,83,0.00,,,0.00,TxWx,2013-07-20 04:07:00,
2013-07-19 23:09:00,83.0,77.0,29.93,SSE,157,6.0,6.0,83,0.00,,,0.00,TxWx,2013-07-20 04:09:00,
2013-07-19 23:10:00,83.0,77.0,29.94,SSE,157,4.0,5.0,83,0.00,,,0.00,TxWx,2013-07-20 04:10:00,
2013-07-19 23:11:00,83.0,77.0,29.94,SE,135,8.0,8.0,83,0.00,,,0.00,TxWx,2013-07-20 04:11:00,
2013-07-19 23:12:00,83.0,77.0,29.94,SSE,157,6.0,6.0,84,0.00,,,0.00,TxWx,2013-07-20 04:12:00,
2013-07-19 23:15:00,83.0,77.0,29.93,South,180,10.0,10.0,83,0.00,,,0.00,TxWx,2013-07-20 04:15:00,
2013-07-19 23:16:00,83.0,77.0,29.94,SSE,157,7.0,7.0,83,0.00,,,0.00,TxWx,2013-07-20 04:16:00,
2013-07-19 23:17:00,83.0,77.0,29.94,SSE,157,10.0,13.0,83,0.00,,,0.00,TxWx,2013-07-20 04:17:00,
2013-07-19 23:18:00,83.0,77.0,29.93,SSE,157,8.0,9.0,83,0.00,,,0.00,TxWx,2013-07-20 04:18:00,
2013-07-19 23:20:00,83.0,77.0,29.94,SSE,157,6.0,7.0,83,0.00,,,0.00,TxWx,2013-07-20 04:20:00,
2013-07-19 23:21:00,83.0,77.0,29.94,South,180,8.0,8.0,83,0.00,,,0.00,TxWx,2013-07-20 04:21:00,
2013-07-19 23:23:00,83.0,77.0,29.94,SE,135,8.0,8.0,82,0.00,,,0.00,TxWx,2013-07-20 04:23:00,
2013-07-19 23:24:00,83.0,77.0,29.94,SSW,202,6.0,6.0,82,0.00,,,0.00,TxWx,2013-07-20 04:24:00,
2013-07-19 23:25:00,83.0,77.0,29.94,SE,135,8.0,10.0,82,0.00,,,0.00,TxWx,2013-07-20 04:25:00,
2013-07-19 23:27:00,83.0,77.0,29.94,SSE,157,9.0,10.0,82,0.00,,,0.00,TxWx,2013-07-20 04:27:00,
2013-07-19 23:30:00,83.0,77.0,29.94,South,180,5.0,5.0,82,0.00,,,0.00,TxWx,2013-07-20 04:30:00,
2013-07-19 23:31:00,83.0,77.0,29.94,South,180,5.0,6.0,82,0.00,,,0.00,TxWx,2013-07-20 04:31:00,
2013-07-19 23:32:00,83.0,77.0,29.94,SSW,202,5.0,5.0,82,0.00,,,0.00,TxWx,2013-07-20 04:32:00,
2013-07-19 23:36:00,83.0,77.0,29.94,South,180,5.0,5.0,82,0.00,,,0.00,TxWx,2013-07-20 04:36:00,
2013-07-19 23:37:00,83.0,77.0,29.94,SSE,157,3.0,4.0,82,0.00,,,0.00,TxWx,2013-07-20 04:37:00,
2013-07-19 23:38:00,83.0,77.0,29.94,SSE,157,4.0,4.0,82,0.00,,,0.00,TxWx,2013-07-20 04:38:00,
2013-07-19 23:42:00,83.0,77.0,29.94,South,180,6.0,6.0,82,0.00,,,0.00,TxWx,2013-07-20 04:42:00,
2013-07-19 23:43:00,83.0,77.0,29.94,ESE,112,6.0,7.0,82,0.00,,,0.00,TxWx,2013-07-20 04:43:00,
2013-07-19 23:45:00,83.0,77.0,29.94,South,180,4.0,5.0,82,0.00,,,0.00,TxWx,2013-07-20 04:45:00,
2013-07-19 23:48:00,83.0,77.0,29.94,SE,135,4.0,4.0,82,0.00,,,0.00,TxWx,2013-07-20 04:48:00,
2013-07-19 23:49:00,83.0,77.0,29.94,SE,135,4.0,4.0,82,0.00,,,0.00,TxWx,2013-07-20 04:49:00,
2013-07-19 23:53:00,83.0,77.0,29.94,SSE,157,5.0,5.0,82,0.00,,,0.00,TxWx,2013-07-20 04:53:00,
2013-07-19 23:55:00,83.0,77.0,29.94,SSE,157,5.0,5.0,82,0.00,,,0.00,TxWx,2013-07-20 04:55:00,
2013-07-19 23:56:00,83.0,77.0,29.94,SSE,157,4.0,5.0,83,0.00,,,0.00,TxWx,2013-07-20 04:56:00,
2013-07-19 23:59:00,82.0,76.0,29.94,SSE,157,3.0,3.0,83,0.00,,,0.00,TxWx,2013-07-20 04:59:00,